Observation data for Palo Duro Reservoir 1NW on 04/08/2021      Previous  Date  Next       Current Mesonet Observations  Soil Data  Daily Summary Page  Observations in Plain Language
KPD4 080500Z 28004KT 05/M00 A299 RMK A01 T00481001  RH  071%=      5-min Rain = 0
KPD4 080501Z 28006KT 05/M00 A299 RMK A01 T00481001  RH  070%=      5-min Rain = 0
KPD4 080502Z 29006KT 05/M00 A299 RMK A01 T00481001  RH  070%=      5-min Rain = 0
KPD4 080503Z 29005KT 05/M00 A299 RMK A01 T00491001  RH  070%=      5-min Rain = 0
KPD4 080504Z 28006KT 05/00 A299 RMK A01 T005000-0  RH  070%=      5-min Rain = 0
KPD4 080505Z 28006KT 05/M00 A299 RMK A01 T00511001  RH  069%=      5-min Rain = 0
KPD4 080506Z 29006KT 05/00 A299 RMK A01 T00520000  RH  069%=      5-min Rain = 0
KPD4 080507Z 29006KT 05/00 A2989 RMK A01 T00540002  RH  069%=      5-min Rain = 0
KPD4 080508Z 29006KT 06/00 A2989 RMK A01 T00560002  RH  068%=      5-min Rain = 0
KPD4 080509Z 29006KT 06/00 A2989 RMK A01 T00550001  RH  068%=      5-min Rain = 0
KPD4 080510Z 29005KT 05/M00 A2989 RMK A01 T00531001  RH  068%=      5-min Rain = 0
KPD4 080511Z 30005KT 05/M00 A2989 RMK A01 T00511001  RH  069%=      5-min Rain = 0
KPD4 080512Z 30006KT 05/M00 A2989 RMK A01 T00501001  RH  070%=      5-min Rain = 0
KPD4 080513Z 30006KT 05/M00 A2989 RMK A01 T00481001  RH  071%=      5-min Rain = 0
KPD4 080514Z 29006KT 05/M00 A2989 RMK A01 T00461001  RH  071%=      5-min Rain = 0
KPD4 080515Z 29005KT 05/M00 A2989 RMK A01 T00451001  RH  072%=      5-min Rain = 0
KPD4 080516Z 29006KT 04/M00 A2989 RMK A01 T00441001  RH  072%=      5-min Rain = 0
KPD4 080517Z 29006KT 04/M00 A2989 RMK A01 T00431001  RH  073%=      5-min Rain = 0
KPD4 080518Z 29007KT 04/M00 A299 RMK A01 T00431001  RH  073%=      5-min Rain = 0
KPD4 080519Z 29007KT 04/M00 A299 RMK A01 T00421001  RH  073%=      5-min Rain = 0
KPD4 080520Z 29007KT 04/M00 A299 RMK A01 T00411001  RH  074%=      5-min Rain = 0
KPD4 080521Z 29006KT 04/M00 A299 RMK A01 T00421001  RH  074%=      5-min Rain = 0
KPD4 080522Z 29006KT 04/M00 A299 RMK A01 T00421001  RH  073%=      5-min Rain = 0
KPD4 080523Z 29006KT 04/M00 A299 RMK A01 T00421001  RH  073%=      5-min Rain = 0
KPD4 080524Z 29006KT 04/M00 A2989 RMK A01 T00421002  RH  073%=      5-min Rain = 0
KPD4 080525Z 29007KT 04/M00 A2989 RMK A01 T00421002  RH  073%=      5-min Rain = 0
KPD4 080526Z 29007KT 04/M00 A2989 RMK A01 T00411002  RH  073%=      5-min Rain = 0
KPD4 080527Z 29007KT 04/M00 A2989 RMK A01 T00411002  RH  073%=      5-min Rain = 0
KPD4 080528Z 29007KT 04/M00 A2989 RMK A01 T00401002  RH  074%=      5-min Rain = 0
KPD4 080529Z 29007KT 04/M00 A2989 RMK A01 T00401003  RH  074%=      5-min Rain = 0
KPD4 080530Z 29007KT 04/M00 A2989 RMK A01 T00401002  RH  074%=      5-min Rain = 0
KPD4 080531Z 29007KT 04/M00 A2989 RMK A01 T00401002  RH  074%=      5-min Rain = 0
KPD4 080532Z 29007KT 04/M00 A2989 RMK A01 T00391003  RH  074%=      5-min Rain = 0
KPD4 080533Z 29007KT 04/M00 A299 RMK A01 T00391003  RH  074%=      5-min Rain = 0
KPD4 080534Z 29006KT 04/M00 A299 RMK A01 T00391003  RH  074%=      5-min Rain = 0
KPD4 080535Z 29006KT 04/M00 A299 RMK A01 T00391003  RH  074%=      5-min Rain = 0
KPD4 080536Z 29006KT 04/M00 A299 RMK A01 T00391003  RH  074%=      5-min Rain = 0
KPD4 080537Z 29006KT 04/M00 A299 RMK A01 T00391003  RH  074%=      5-min Rain = 0
KPD4 080538Z 29006KT 04/M00 A299 RMK A01 T00391004  RH  074%=      5-min Rain = 0
KPD4 080539Z 29006KT 04/M00 A299 RMK A01 T00381004  RH  074%=      5-min Rain = 0
KPD4 080540Z 29006KT 04/M00 A299 RMK A01 T00381004  RH  074%=      5-min Rain = 0
KPD4 080541Z 29006KT 04/M00 A299 RMK A01 T00381004  RH  074%=      5-min Rain = 0
KPD4 080542Z 29006KT 04/M00 A299 RMK A01 T00381004  RH  074%=      5-min Rain = 0
KPD4 080543Z 28006KT 04/M00 A299 RMK A01 T00381004  RH  074%=      5-min Rain = 0
KPD4 080544Z 29006KT 04/M00 A299 RMK A01 T00381004  RH  074%=      5-min Rain = 0
KPD4 080545Z 29006KT 04/M01 A299 RMK A01 T00381005  RH  074%=      5-min Rain = 0
KPD4 080546Z 28006KT 04/M00 A299 RMK A01 T00391004  RH  073%=      5-min Rain = 0
KPD4 080547Z 28006KT 04/M00 A299 RMK A01 T00391004  RH  073%=      5-min Rain = 0
KPD4 080548Z 28006KT 04/M01 A299 RMK A01 T00391005  RH  073%=      5-min Rain = 0
KPD4 080549Z 28005KT 04/M01 A299 RMK A01 T00381005  RH  073%=      5-min Rain = 0
KPD4 080550Z 28005KT 04/M01 A299 RMK A01 T00381005  RH  073%=      5-min Rain = 0
KPD4 080551Z 28005KT 04/M01 A299 RMK A01 T00381005  RH  073%=      5-min Rain = 0
KPD4 080552Z 28005KT 04/M01 A299 RMK A01 T00391005  RH  073%=      5-min Rain = 0
KPD4 080553Z 27005KT 04/M01 A299 RMK A01 T00391005  RH  073%=      5-min Rain = 0
KPD4 080554Z 27005KT 04/M01 A299 RMK A01 T00391005  RH  073%=      5-min Rain = 0
KPD4 080555Z 27006KT 04/M01 A299 RMK A01 T00391005  RH  073%=      5-min Rain = 0
KPD4 080556Z 26006KT 04/M01 A299 RMK A01 T00371007  RH  073%=      5-min Rain = 0
KPD4 080557Z 24004KT 04/M01 A299 RMK A01 T00351008  RH  074%=      5-min Rain = 0
KPD4 080558Z 24004KT 03/M01 A299 RMK A01 T00341007  RH  075%=      5-min Rain = 0
KPD4 080559Z 24004KT 03/M01 A299 RMK A01 T00341006  RH  075%=      5-min Rain = 0
KPD4 080600Z 24004KT 03/M01 A299 RMK A01 T00341005  RH  076%=      5-min Rain = 0
KPD4 080601Z 24005KT 04/M00 A299 RMK A01 T00371003  RH  075%=      5-min Rain = 0
KPD4 080602Z 24004KT 04/M00 A299 RMK A01 T00401001  RH  075%=      5-min Rain = 0
KPD4 080603Z 23004KT 04/M00 A299 RMK A01 T00421001  RH  073%=      5-min Rain = 0
KPD4 080604Z 24004KT 04/M00 A299 RMK A01 T00431001  RH  073%=      5-min Rain = 0
KPD4 080605Z 25004KT 04/M00 A299 RMK A01 T00441001  RH  073%=      5-min Rain = 0
KPD4 080606Z 25004KT 05/00 A299 RMK A01 T00460000  RH  072%=      5-min Rain = 0
KPD4 080607Z 26005KT 05/00 A299 RMK A01 T004700-0  RH  071%=      5-min Rain = 0
KPD4 080608Z 26005KT 05/M00 A299 RMK A01 T00471001  RH  071%=      5-min Rain = 0
KPD4 080609Z 26006KT 05/M00 A299 RMK A01 T00451004  RH  071%=      5-min Rain = 0
KPD4 080610Z 26007KT 04/M01 A299 RMK A01 T00411006  RH  071%=      5-min Rain = 0
KPD4 080611Z 26007KT 04/M01 A299 RMK A01 T00401005  RH  073%=      5-min Rain = 0
KPD4 080612Z 26007KT 04/M01 A299 RMK A01 T00391005  RH  073%=      5-min Rain = 0
KPD4 080613Z 27008KT 04/M01 A299 RMK A01 T00391005  RH  073%=      5-min Rain = 0
KPD4 080614Z 27008KT 04/M01 A299 RMK A01 T00381006  RH  073%=      5-min Rain = 0
KPD4 080615Z 27008KT 04/M01 A299 RMK A01 T00371006  RH  073%=      5-min Rain = 0
KPD4 080616Z 27008KT 04/M01 A299 RMK A01 T00361007  RH  074%=      5-min Rain = 0
KPD4 080617Z 27009KT 04/M01 A299 RMK A01 T00351007  RH  074%=      5-min Rain = 0
KPD4 080618Z 27008KT 04/M01 A2991 RMK A01 T00361006  RH  074%=      5-min Rain = 0
KPD4 080619Z 27008KT 04/M01 A2991 RMK A01 T00361007  RH  074%=      5-min Rain = 0
KPD4 080620Z 28008KT 04/M01 A2991 RMK A01 T00351007  RH  074%=      5-min Rain = 0
KPD4 080621Z 28008KT 04/M01 A2991 RMK A01 T00351006  RH  074%=      5-min Rain = 0
KPD4 080622Z 28008KT 04/M01 A2991 RMK A01 T00351005  RH  075%=      5-min Rain = 0
KPD4 080623Z 28008KT 04/M01 A2991 RMK A01 T00361005  RH  075%=      5-min Rain = 0
KPD4 080624Z 27008KT 04/M00 A2991 RMK A01 T00371004  RH  075%=      5-min Rain = 0
KPD4 080625Z 27009KT 04/M00 A2991 RMK A01 T00371004  RH  075%=      5-min Rain = 0
KPD4 080626Z 27009KT 04/M00 A2991 RMK A01 T00381003  RH  074%=      5-min Rain = 0
KPD4 080627Z 27009KT 04/M00 A2991 RMK A01 T00391003  RH  074%=      5-min Rain = 0
KPD4 080628Z 27009KT 04/M00 A2991 RMK A01 T00401002  RH  074%=      5-min Rain = 0
KPD4 080629Z 28009KT 04/M00 A2991 RMK A01 T00401002  RH  074%=      5-min Rain = 0
KPD4 080630Z 28009KT 04/M00 A2991 RMK A01 T00401002  RH  074%=      5-min Rain = 0
KPD4 080631Z 28009KT 04/M00 A299 RMK A01 T00411002  RH  074%=      5-min Rain = 0
KPD4 080632Z 28009KT 04/M00 A299 RMK A01 T00411002  RH  074%=      5-min Rain = 0
KPD4 080633Z 28009KT 04/M00 A299 RMK A01 T00411002  RH  073%=      5-min Rain = 0
KPD4 080634Z 28009KT 04/M00 A299 RMK A01 T00401004  RH  073%=      5-min Rain = 0
KPD4 080635Z 28009KT 04/M00 A299 RMK A01 T00391004  RH  074%=      5-min Rain = 0
KPD4 080636Z 28009KT 04/M01 A299 RMK A01 T00381005  RH  074%=      5-min Rain = 0
KPD4 080637Z 28009KT 04/M01 A299 RMK A01 T00371005  RH  074%=      5-min Rain = 0
KPD4 080638Z 28009KT 04/M01 A299 RMK A01 T00371005  RH  074%=      5-min Rain = 0
KPD4 080639Z 28009KT 04/M00 A299 RMK A01 T00371004  RH  074%=      5-min Rain = 0
KPD4 080640Z 29010KT 04/M01 A299 RMK A01 T00371005  RH  074%=      5-min Rain = 0
KPD4 080641Z 28011KT 04/M01 A299 RMK A01 T00371005  RH  074%=      5-min Rain = 0
KPD4 080642Z 28011KT 04/M01 A299 RMK A01 T00361006  RH  074%=      5-min Rain = 0
KPD4 080643Z 28011KT 04/M01 A299 RMK A01 T00351006  RH  075%=      5-min Rain = 0
KPD4 080644Z 28011KT 03/M01 A299 RMK A01 T00341006  RH  075%=      5-min Rain = 0
KPD4 080645Z 28011KT 03/M01 A299 RMK A01 T00331006  RH  076%=      5-min Rain = 0
KPD4 080646Z 29011KT 03/M01 A299 RMK A01 T00321006  RH  076%=      5-min Rain = 0
KPD4 080647Z 28011KT 03/M01 A299 RMK A01 T00321006  RH  076%=      5-min Rain = 0
KPD4 080648Z 29011KT 03/M01 A299 RMK A01 T00311006  RH  076%=      5-min Rain = 0
KPD4 080649Z 29011KT 03/M01 A299 RMK A01 T00311006  RH  077%=      5-min Rain = 0
KPD4 080650Z 28011KT 03/M01 A299 RMK A01 T00301006  RH  077%=      5-min Rain = 0
KPD4 080651Z 29012KT 03/M01 A299 RMK A01 T00301006  RH  078%=      5-min Rain = 0
KPD4 080652Z 28012KT 03/M01 A299 RMK A01 T00301005  RH  078%=      5-min Rain = 0
KPD4 080653Z 28012KT 03/M01 A299 RMK A01 T00311005  RH  078%=      5-min Rain = 0
KPD4 080654Z 28012KT 03/M01 A299 RMK A01 T00311005  RH  077%=      5-min Rain = 0
KPD4 080655Z 28012KT 03/M01 A299 RMK A01 T00311005  RH  077%=      5-min Rain = 0
KPD4 080656Z 28012KT 03/M01 A299 RMK A01 T00311006  RH  077%=      5-min Rain = 0
KPD4 080657Z 28012KT 03/M01 A299 RMK A01 T00311006  RH  077%=      5-min Rain = 0
KPD4 080658Z 28012KT 03/M01 A299 RMK A01 T00321005  RH  077%=      5-min Rain = 0
KPD4 080659Z 28012KT 03/M01 A299 RMK A01 T00321005  RH  077%=      5-min Rain = 0
KPD4 080700Z 28012KT 03/M01 A299 RMK A01 T00321005  RH  076%=      5-min Rain = 0
KPD4 080701Z 28011KT 03/M01 A299 RMK A01 T00321005  RH  077%=      5-min Rain = 0
KPD4 080702Z 28011KT 03/M01 A299 RMK A01 T00321006  RH  077%=      5-min Rain = 0
KPD4 080703Z 28011KT 03/M01 A299 RMK A01 T00321005  RH  077%=      5-min Rain = 0
KPD4 080704Z 28011KT 03/M01 A299 RMK A01 T00321005  RH  077%=      5-min Rain = 0
KPD4 080705Z 28011KT 03/M01 A299 RMK A01 T00321005  RH  077%=      5-min Rain = 0
KPD4 080706Z 28011KT 03/M01 A299 RMK A01 T00321005  RH  077%=      5-min Rain = 0
KPD4 080707Z 28011KT 03/M00 A299 RMK A01 T00321004  RH  077%=      5-min Rain = 0
KPD4 080708Z 28011KT 03/M01 A299 RMK A01 T00321005  RH  077%=      5-min Rain = 0
KPD4 080709Z 28011KT 03/M01 A299 RMK A01 T00321005  RH  077%=      5-min Rain = 0
KPD4 080710Z 28011KT 03/M01 A299 RMK A01 T00311005  RH  077%=      5-min Rain = 0
KPD4 080711Z 28010KT 03/M01 A299 RMK A01 T00311005  RH  077%=      5-min Rain = 0
KPD4 080712Z 28010KT 03/M01 A299 RMK A01 T00311005  RH  077%=      5-min Rain = 0
KPD4 080713Z 28011KT 03/M01 A299 RMK A01 T00311005  RH  077%=      5-min Rain = 0
KPD4 080714Z 28011KT 03/M01 A2991 RMK A01 T00321005  RH  077%=      5-min Rain = 0
KPD4 080715Z 28010KT 03/M01 A2991 RMK A01 T00331006  RH  076%=      5-min Rain = 0
KPD4 080716Z 28010KT 03/M01 A2991 RMK A01 T00331007  RH  076%=      5-min Rain = 0
KPD4 080717Z 28010KT 03/M01 A2991 RMK A01 T00331007  RH  075%=      5-min Rain = 0
KPD4 080718Z 27010KT 03/M01 A2991 RMK A01 T00331007  RH  075%=      5-min Rain = 0
KPD4 080719Z 27010KT 03/M01 A2991 RMK A01 T00341007  RH  075%=      5-min Rain = 0
KPD4 080720Z 27010KT 04/M01 A2991 RMK A01 T00351007  RH  074%=      5-min Rain = 0
KPD4 080721Z 27011KT 04/M01 A2991 RMK A01 T00361007  RH  073%=      5-min Rain = 0
KPD4 080722Z 27011KT 04/M01 A2991 RMK A01 T00371007  RH  073%=      5-min Rain = 0
KPD4 080723Z 27011KT 04/M01 A2991 RMK A01 T00381007  RH  072%=      5-min Rain = 0
KPD4 080724Z 27011KT 04/M01 A2991 RMK A01 T00381008  RH  072%=      5-min Rain = 0
KPD4 080725Z 27011KT 04/M01 A2991 RMK A01 T00371008  RH  073%=      5-min Rain = 0
KPD4 080726Z 27011KT 04/M01 A2991 RMK A01 T00351008  RH  073%=      5-min Rain = 0
KPD4 080727Z 27011KT 04/M01 A2991 RMK A01 T00351008  RH  074%=      5-min Rain = 0
KPD4 080728Z 27010KT 04/M01 A2991 RMK A01 T00351008  RH  074%=      5-min Rain = 0
KPD4 080729Z 26010KT 04/M01 A2991 RMK A01 T00351008  RH  074%=      5-min Rain = 0
KPD4 080730Z 26010KT 04/M01 A2991 RMK A01 T00351007  RH  074%=      5-min Rain = 0
KPD4 080731Z 26010KT 04/M01 A2991 RMK A01 T00361007  RH  074%=      5-min Rain = 0
KPD4 080732Z 26010KT 04/M01 A2991 RMK A01 T00361007  RH  074%=      5-min Rain = 0
KPD4 080733Z 27011KT 04/M01 A2991 RMK A01 T00361007  RH  074%=      5-min Rain = 0
KPD4 080734Z 27012KT 04/M01 A2991 RMK A01 T00361007  RH  073%=      5-min Rain = 0
KPD4 080735Z 27012KT 04/M01 A2991 RMK A01 T00371007  RH  073%=      5-min Rain = 0
KPD4 080736Z 27012KT 04/M01 A2991 RMK A01 T00391007  RH  072%=      5-min Rain = 0
KPD4 080737Z 27012KT 04/M01 A2991 RMK A01 T00391007  RH  072%=      5-min Rain = 0
KPD4 080738Z 27012KT 04/M01 A2991 RMK A01 T00391008  RH  072%=      5-min Rain = 0
KPD4 080739Z 27012KT 04/M01 A2991 RMK A01 T00391008  RH  071%=      5-min Rain = 0
KPD4 080740Z 27011KT 04/M01 A2991 RMK A01 T00391009  RH  071%=      5-min Rain = 0
KPD4 080741Z 27012KT 04/M01 A2991 RMK A01 T00401009  RH  070%=      5-min Rain = 0
KPD4 080742Z 27012KT 04/M01 A2991 RMK A01 T00391010  RH  070%=      5-min Rain = 0
KPD4 080743Z 27012KT 04/M01 A2991 RMK A01 T00391010  RH  070%=      5-min Rain = 0
KPD4 080744Z 27012KT 04/M01 A299 RMK A01 T00391010  RH  070%=      5-min Rain = 0
KPD4 080745Z 27013KT 04/M01 A299 RMK A01 T00391011  RH  070%=      5-min Rain = 0
KPD4 080746Z 27012KT 04/M01 A299 RMK A01 T00391011  RH  070%=      5-min Rain = 0
KPD4 080747Z 27012KT 04/M01 A299 RMK A01 T00401011  RH  070%=      5-min Rain = 0
KPD4 080748Z 27012KT 04/M01 A299 RMK A01 T00401011  RH  070%=      5-min Rain = 0
KPD4 080749Z 27011KT 04/M01 A299 RMK A01 T00391011  RH  070%=      5-min Rain = 0
KPD4 080750Z 27011KT 04/M01 A299 RMK A01 T00391011  RH  070%=      5-min Rain = 0
KPD4 080751Z 27011KT 04/M01 A299 RMK A01 T00381012  RH  070%=      5-min Rain = 0
KPD4 080752Z 27011KT 04/M01 A299 RMK A01 T00381012  RH  070%=      5-min Rain = 0
KPD4 080753Z 27011KT 04/M01 A299 RMK A01 T00371013  RH  070%=      5-min Rain = 0
KPD4 080754Z 27011KT 04/M01 A299 RMK A01 T00361013  RH  070%=      5-min Rain = 0
KPD4 080755Z 27011KT 04/M01 A299 RMK A01 T00361013  RH  070%=      5-min Rain = 0
KPD4 080756Z 27011KT 04/M01 A299 RMK A01 T00351014  RH  070%=      5-min Rain = 0
KPD4 080757Z 27011KT 04/M01 A299 RMK A01 T00351014  RH  070%=      5-min Rain = 0
KPD4 080758Z 27010KT 03/M01 A299 RMK A01 T00341014  RH  071%=      5-min Rain = 0
KPD4 080759Z 27011KT 03/M01 A299 RMK A01 T00341014  RH  071%=      5-min Rain = 0
KPD4 080800Z 27010KT 03/M01 A299 RMK A01 T00331014  RH  071%=      5-min Rain = 0
KPD4 080801Z 27010KT 03/M02 A299 RMK A01 T00331015  RH  071%=      5-min Rain = 0
KPD4 080802Z 27010KT 03/M01 A2989 RMK A01 T00331014  RH  071%=      5-min Rain = 0
KPD4 080803Z 27010KT 03/M01 A2989 RMK A01 T00321014  RH  072%=      5-min Rain = 0
KPD4 080804Z 27010KT 03/M02 A2989 RMK A01 T00311015  RH  072%=      5-min Rain = 0
KPD4 080805Z 27011KT 03/M01 A2989 RMK A01 T00311014  RH  072%=      5-min Rain = 0
KPD4 080806Z 27011KT 03/M01 A2989 RMK A01 T00311014  RH  072%=      5-min Rain = 0
KPD4 080807Z 27011KT 03/M01 A2989 RMK A01 T00311014  RH  072%=      5-min Rain = 0
KPD4 080808Z 27011KT 03/M01 A2989 RMK A01 T00311014  RH  072%=      5-min Rain = 0
KPD4 080809Z 27011KT 03/M02 A2989 RMK A01 T00301015  RH  072%=      5-min Rain = 0
KPD4 080810Z 27011KT 03/M02 A2989 RMK A01 T00301015  RH  072%=      5-min Rain = 0
KPD4 080811Z 27011KT 03/M01 A2989 RMK A01 T00311014  RH  072%=      5-min Rain = 0
KPD4 080812Z 27011KT 03/M01 A2989 RMK A01 T00321014  RH  072%=      5-min Rain = 0
KPD4 080813Z 27011KT 03/M02 A2989 RMK A01 T00321015  RH  072%=      5-min Rain = 0
KPD4 080814Z 28011KT 03/M02 A2989 RMK A01 T00321015  RH  071%=      5-min Rain = 0
KPD4 080815Z 27011KT 03/M02 A2989 RMK A01 T00331015  RH  071%=      5-min Rain = 0
KPD4 080816Z 27010KT 03/M02 A2989 RMK A01 T00331015  RH  071%=      5-min Rain = 0
KPD4 080817Z 27010KT 03/M02 A2989 RMK A01 T00341015  RH  070%=      5-min Rain = 0
KPD4 080818Z 27010KT 03/M02 A2989 RMK A01 T00341015  RH  070%=      5-min Rain = 0
KPD4 080819Z 27010KT 03/M02 A2989 RMK A01 T00341015  RH  070%=      5-min Rain = 0
KPD4 080820Z 27010KT 03/M02 A2989 RMK A01 T00331015  RH  071%=      5-min Rain = 0
KPD4 080821Z 27010KT 03/M02 A2989 RMK A01 T00321015  RH  071%=      5-min Rain = 0
KPD4 080822Z 27010KT 03/M02 A2989 RMK A01 T00321015  RH  071%=      5-min Rain = 0
KPD4 080823Z 27010KT 03/M02 A2989 RMK A01 T00321015  RH  071%=      5-min Rain = 0
KPD4 080824Z 28010KT 03/M02 A2989 RMK A01 T00321015  RH  071%=      5-min Rain = 0
KPD4 080825Z 28010KT 03/M02 A2989 RMK A01 T00321015  RH  071%=      5-min Rain = 0
KPD4 080826Z 28010KT 03/M02 A2988 RMK A01 T00321015  RH  071%=      5-min Rain = 0
KPD4 080827Z 28010KT 03/M02 A2988 RMK A01 T00321015  RH  071%=      5-min Rain = 0
KPD4 080828Z 28010KT 03/M02 A2988 RMK A01 T00321015  RH  071%=      5-min Rain = 0
KPD4 080829Z 28010KT 03/M02 A2988 RMK A01 T00321015  RH  071%=      5-min Rain = 0
KPD4 080830Z 28010KT 03/M02 A2988 RMK A01 T00321016  RH  071%=      5-min Rain = 0
KPD4 080831Z 28010KT 03/M02 A2988 RMK A01 T00311016  RH  071%=      5-min Rain = 0
KPD4 080832Z 28010KT 03/M02 A2988 RMK A01 T00301016  RH  072%=      5-min Rain = 0
KPD4 080833Z 28011KT 03/M02 A2988 RMK A01 T00301016  RH  072%=      5-min Rain = 0
KPD4 080834Z 28010KT 03/M02 A2988 RMK A01 T00291016  RH  072%=      5-min Rain = 0
KPD4 080835Z 28010KT 03/M02 A2988 RMK A01 T00291016  RH  072%=      5-min Rain = 0
KPD4 080836Z 28010KT 03/M02 A2988 RMK A01 T00281017  RH  072%=      5-min Rain = 0
KPD4 080837Z 28010KT 03/M02 A2988 RMK A01 T00281017  RH  073%=      5-min Rain = 0
KPD4 080838Z 28010KT 03/M02 A2988 RMK A01 T00281016  RH  073%=      5-min Rain = 0
KPD4 080839Z 28010KT 03/M02 A2988 RMK A01 T00271016  RH  073%=      5-min Rain = 0
KPD4 080840Z 28010KT 03/M02 A2988 RMK A01 T00271017  RH  073%=      5-min Rain = 0
KPD4 080841Z 27010KT 03/M02 A2988 RMK A01 T00271017  RH  073%=      5-min Rain = 0
KPD4 080842Z 28010KT 03/M02 A2988 RMK A01 T00261017  RH  073%=      5-min Rain = 0
KPD4 080843Z 27010KT 03/M02 A2988 RMK A01 T00251017  RH  074%=      5-min Rain = 0
KPD4 080844Z 27009KT 03/M02 A2988 RMK A01 T00251017  RH  074%=      5-min Rain = 0
KPD4 080845Z 27010KT 02/M02 A2988 RMK A01 T00241017  RH  074%=      5-min Rain = 0
KPD4 080846Z 27009KT 03/M02 A2988 RMK A01 T00251017  RH  074%=      5-min Rain = 0
KPD4 080847Z 28010KT 03/M02 A2988 RMK A01 T00251017  RH  074%=      5-min Rain = 0
KPD4 080848Z 27010KT 03/M02 A2988 RMK A01 T00251017  RH  074%=      5-min Rain = 0
KPD4 080849Z 27010KT 03/M02 A2988 RMK A01 T00251017  RH  074%=      5-min Rain = 0
KPD4 080850Z 27010KT 03/M02 A2988 RMK A01 T00251017  RH  074%=      5-min Rain = 0
KPD4 080851Z 27010KT 03/M02 A2988 RMK A01 T00251017  RH  074%=      5-min Rain = 0
KPD4 080852Z 27010KT 02/M02 A2988 RMK A01 T00241017  RH  074%=      5-min Rain = 0
KPD4 080853Z 27010KT 02/M02 A2988 RMK A01 T00241017  RH  074%=      5-min Rain = 0
KPD4 080854Z 27010KT 02/M02 A2988 RMK A01 T00241017  RH  074%=      5-min Rain = 0
KPD4 080855Z 27010KT 02/M02 A2988 RMK A01 T00241017  RH  074%=      5-min Rain = 0
KPD4 080856Z 27010KT 02/M02 A2988 RMK A01 T00241017  RH  074%=      5-min Rain = 0
KPD4 080857Z 27010KT 02/M02 A2988 RMK A01 T00241017  RH  074%=      5-min Rain = 0
KPD4 080858Z 27010KT 02/M02 A2988 RMK A01 T00241017  RH  074%=      5-min Rain = 0
KPD4 080859Z 27010KT 03/M02 A2987 RMK A01 T00251017  RH  074%=      5-min Rain = 0
KPD4 080900Z 27010KT 03/M02 A2987 RMK A01 T00251017  RH  074%=      5-min Rain = 0
KPD4 080901Z 27010KT 03/M02 A2987 RMK A01 T00251016  RH  074%=      5-min Rain = 0
KPD4 080902Z 27010KT 03/M02 A2987 RMK A01 T00251016  RH  074%=      5-min Rain = 0
KPD4 080903Z 27010KT 03/M02 A2987 RMK A01 T00251016  RH  074%=      5-min Rain = 0
KPD4 080904Z 27010KT 03/M02 A2987 RMK A01 T00251017  RH  074%=      5-min Rain = 0
KPD4 080905Z 27010KT 03/M02 A2987 RMK A01 T00251017  RH  074%=      5-min Rain = 0
KPD4 080906Z 27010KT 03/M02 A2987 RMK A01 T00261017  RH  074%=      5-min Rain = 0
KPD4 080907Z 27010KT 03/M02 A2987 RMK A01 T00251017  RH  074%=      5-min Rain = 0
KPD4 080908Z 27010KT 03/M02 A2987 RMK A01 T00251017  RH  074%=      5-min Rain = 0
KPD4 080909Z 26009KT 02/M02 A2987 RMK A01 T00241017  RH  074%=      5-min Rain = 0
KPD4 080910Z 26009KT 02/M02 A2987 RMK A01 T00241017  RH  074%=      5-min Rain = 0
KPD4 080911Z 26009KT 02/M02 A2987 RMK A01 T00231017  RH  075%=      5-min Rain = 0
KPD4 080912Z 26008KT 02/M02 A2987 RMK A01 T00221017  RH  075%=      5-min Rain = 0
KPD4 080913Z 26008KT 02/M02 A2987 RMK A01 T00221017  RH  075%=      5-min Rain = 0
KPD4 080914Z 26008KT 02/M02 A2987 RMK A01 T00221017  RH  075%=      5-min Rain = 0
KPD4 080915Z 26008KT 02/M02 A2987 RMK A01 T00221016  RH  075%=      5-min Rain = 0
KPD4 080916Z 26007KT 02/M02 A2987 RMK A01 T00221016  RH  076%=      5-min Rain = 0
KPD4 080917Z 26006KT 02/M02 A2987 RMK A01 T00221017  RH  076%=      5-min Rain = 0
KPD4 080918Z 26006KT 02/M02 A2987 RMK A01 T00221017  RH  076%=      5-min Rain = 0
KPD4 080919Z 26007KT 02/M02 A2987 RMK A01 T00211017  RH  076%=      5-min Rain = 0
KPD4 080920Z 26007KT 02/M02 A2987 RMK A01 T00211017  RH  076%=      5-min Rain = 0
KPD4 080921Z 26006KT 02/M02 A2987 RMK A01 T00211017  RH  076%=      5-min Rain = 0
KPD4 080922Z 27007KT 02/M02 A2987 RMK A01 T00211017  RH  076%=      5-min Rain = 0
KPD4 080923Z 27007KT 02/M02 A2987 RMK A01 T00211016  RH  076%=      5-min Rain = 0
KPD4 080924Z 27007KT 02/M02 A2987 RMK A01 T00211017  RH  076%=      5-min Rain = 0
KPD4 080925Z 27007KT 02/M02 A2987 RMK A01 T00211017  RH  076%=      5-min Rain = 0
KPD4 080926Z 27007KT 02/M02 A2987 RMK A01 T00211016  RH  076%=      5-min Rain = 0
KPD4 080927Z 27008KT 02/M02 A2987 RMK A01 T00221016  RH  076%=      5-min Rain = 0
KPD4 080928Z 27008KT 02/M02 A2987 RMK A01 T00221016  RH  076%=      5-min Rain = 0
KPD4 080929Z 27009KT 02/M02 A2987 RMK A01 T00221016  RH  076%=      5-min Rain = 0
KPD4 080930Z 27009KT 02/M02 A2987 RMK A01 T00231016  RH  075%=      5-min Rain = 0
KPD4 080931Z 27010KT 02/M02 A2987 RMK A01 T00231016  RH  075%=      5-min Rain = 0
KPD4 080932Z 26010KT 02/M02 A2987 RMK A01 T00231016  RH  075%=      5-min Rain = 0
KPD4 080933Z 26009KT 02/M02 A2987 RMK A01 T00221016  RH  076%=      5-min Rain = 0
KPD4 080934Z 26009KT 02/M02 A2987 RMK A01 T00221016  RH  076%=      5-min Rain = 0
KPD4 080935Z 26009KT 02/M02 A2987 RMK A01 T00221016  RH  076%=      5-min Rain = 0
KPD4 080936Z 26009KT 02/M02 A2987 RMK A01 T00221016  RH  076%=      5-min Rain = 0
KPD4 080937Z 26009KT 02/M02 A2987 RMK A01 T00221016  RH  076%=      5-min Rain = 0
KPD4 080938Z 27009KT 02/M02 A2987 RMK A01 T00221016  RH  076%=      5-min Rain = 0
KPD4 080939Z 26009KT 02/M02 A2987 RMK A01 T00231016  RH  075%=      5-min Rain = 0
KPD4 080940Z 26010KT 02/M02 A2987 RMK A01 T00241016  RH  075%=      5-min Rain = 0
KPD4 080941Z 27010KT 02/M02 A2987 RMK A01 T00241016  RH  075%=      5-min Rain = 0
KPD4 080942Z 26010KT 02/M02 A2987 RMK A01 T00241016  RH  075%=      5-min Rain = 0
KPD4 080943Z 26010KT 02/M02 A2987 RMK A01 T00241016  RH  075%=      5-min Rain = 0
KPD4 080944Z 27010KT 03/M02 A2987 RMK A01 T00251016  RH  075%=      5-min Rain = 0
KPD4 080945Z 27011KT 03/M02 A2987 RMK A01 T00251016  RH  075%=      5-min Rain = 0
KPD4 080946Z 27010KT 03/M02 A2987 RMK A01 T00251016  RH  074%=      5-min Rain = 0
KPD4 080947Z 27010KT 03/M02 A2987 RMK A01 T00251016  RH  074%=      5-min Rain = 0
KPD4 080948Z 27010KT 03/M02 A2987 RMK A01 T00251016  RH  074%=      5-min Rain = 0
KPD4 080949Z 27010KT 03/M02 A2987 RMK A01 T00261016  RH  074%=      5-min Rain = 0
KPD4 080950Z 27010KT 03/M02 A2987 RMK A01 T00261016  RH  074%=      5-min Rain = 0
KPD4 080951Z 27009KT 03/M02 A2987 RMK A01 T00261016  RH  074%=      5-min Rain = 0
KPD4 080952Z 27009KT 03/M02 A2987 RMK A01 T00261016  RH  074%=      5-min Rain = 0
KPD4 080953Z 27009KT 03/M02 A2987 RMK A01 T00261016  RH  074%=      5-min Rain = 0
KPD4 080954Z 27009KT 03/M02 A2987 RMK A01 T00261016  RH  074%=      5-min Rain = 0
KPD4 080955Z 27008KT 03/M02 A2987 RMK A01 T00251016  RH  074%=      5-min Rain = 0
KPD4 080956Z 27008KT 03/M02 A2987 RMK A01 T00251016  RH  074%=      5-min Rain = 0
KPD4 080957Z 27009KT 03/M02 A2987 RMK A01 T00251016  RH  074%=      5-min Rain = 0
KPD4 080958Z 27008KT 03/M02 A2987 RMK A01 T00251016  RH  074%=      5-min Rain = 0
KPD4 080959Z 27009KT 02/M02 A2987 RMK A01 T00241016  RH  075%=      5-min Rain = 0
KPD4 081000Z 27009KT 02/M02 A2987 RMK A01 T00241017  RH  075%=      5-min Rain = 0
KPD4 081001Z 28008KT 02/M02 A2987 RMK A01 T00231017  RH  075%=      5-min Rain = 0
KPD4 081002Z 28008KT 02/M02 A2987 RMK A01 T00231017  RH  075%=      5-min Rain = 0
KPD4 081003Z 27008KT 02/M02 A2987 RMK A01 T00221017  RH  075%=      5-min Rain = 0
KPD4 081004Z 27008KT 02/M02 A2987 RMK A01 T00221017  RH  075%=      5-min Rain = 0
KPD4 081005Z 27008KT 02/M02 A2987 RMK A01 T00211017  RH  076%=      5-min Rain = 0
KPD4 081006Z 27008KT 02/M02 A2987 RMK A01 T00211018  RH  076%=      5-min Rain = 0
KPD4 081007Z 27008KT 02/M02 A2987 RMK A01 T00211017  RH  076%=      5-min Rain = 0
KPD4 081008Z 27008KT 02/M02 A2987 RMK A01 T00211018  RH  076%=      5-min Rain = 0
KPD4 081009Z 27009KT 02/M02 A2987 RMK A01 T00201018  RH  076%=      5-min Rain = 0
KPD4 081010Z 27009KT 02/M02 A2987 RMK A01 T00201018  RH  076%=      5-min Rain = 0
KPD4 081011Z 27009KT 02/M02 A2987 RMK A01 T00191018  RH  076%=      5-min Rain = 0
KPD4 081012Z 27010KT 02/M02 A2986 RMK A01 T00191018  RH  076%=      5-min Rain = 0
KPD4 081013Z 27010KT 02/M02 A2986 RMK A01 T00201018  RH  076%=      5-min Rain = 0
KPD4 081014Z 27010KT 02/M02 A2986 RMK A01 T00201018  RH  076%=      5-min Rain = 0
KPD4 081015Z 27010KT 02/M02 A2986 RMK A01 T00191018  RH  076%=      5-min Rain = 0
KPD4 081016Z 27010KT 02/M02 A2986 RMK A01 T00191018  RH  076%=      5-min Rain = 0
KPD4 081017Z 27010KT 02/M02 A2986 RMK A01 T00191018  RH  076%=      5-min Rain = 0
KPD4 081018Z 27010KT 02/M02 A2986 RMK A01 T00191018  RH  076%=      5-min Rain = 0
KPD4 081019Z 27009KT 02/M02 A2986 RMK A01 T00191018  RH  076%=      5-min Rain = 0
KPD4 081020Z 27009KT 02/M02 A2986 RMK A01 T00201018  RH  076%=      5-min Rain = 0
KPD4 081021Z 27010KT 02/M02 A2986 RMK A01 T00191018  RH  076%=      5-min Rain = 0
KPD4 081022Z 27010KT 02/M02 A2986 RMK A01 T00191018  RH  076%=      5-min Rain = 0
KPD4 081023Z 27010KT 02/M02 A2986 RMK A01 T00191018  RH  076%=      5-min Rain = 0
KPD4 081024Z 27010KT 02/M02 A2986 RMK A01 T00181018  RH  077%=      5-min Rain = 0
KPD4 081025Z 27010KT 02/M02 A2986 RMK A01 T00181019  RH  077%=      5-min Rain = 0
KPD4 081026Z 27010KT 02/M02 A2986 RMK A01 T00181018  RH  077%=      5-min Rain = 0
KPD4 081027Z 27010KT 02/M02 A2986 RMK A01 T00191018  RH  076%=      5-min Rain = 0
KPD4 081028Z 28010KT 02/M02 A2986 RMK A01 T00191018  RH  076%=      5-min Rain = 0
KPD4 081029Z 27010KT 02/M02 A2986 RMK A01 T00201018  RH  076%=      5-min Rain = 0
KPD4 081030Z 27010KT 02/M02 A2986 RMK A01 T00211017  RH  075%=      5-min Rain = 0
KPD4 081031Z 27010KT 02/M02 A2986 RMK A01 T00221017  RH  075%=      5-min Rain = 0
KPD4 081032Z 27010KT 02/M02 A2986 RMK A01 T00221018  RH  075%=      5-min Rain = 0
KPD4 081033Z 27010KT 02/M02 A2986 RMK A01 T00221018  RH  075%=      5-min Rain = 0
KPD4 081034Z 27010KT 02/M02 A2986 RMK A01 T00231018  RH  075%=      5-min Rain = 0
KPD4 081035Z 27010KT 02/M02 A2986 RMK A01 T00231018  RH  074%=      5-min Rain = 0
KPD4 081036Z 27010KT 02/M02 A2986 RMK A01 T00231018  RH  074%=      5-min Rain = 0
KPD4 081037Z 27009KT 02/M02 A2986 RMK A01 T00231018  RH  075%=      5-min Rain = 0
KPD4 081038Z 27010KT 02/M02 A2986 RMK A01 T00231018  RH  075%=      5-min Rain = 0
KPD4 081039Z 27009KT 02/M02 A2986 RMK A01 T00231018  RH  075%=      5-min Rain = 0
KPD4 081040Z 27009KT 02/M02 A2986 RMK A01 T00221018  RH  075%=      5-min Rain = 0
KPD4 081041Z 27009KT 02/M02 A2986 RMK A01 T00221018  RH  075%=      5-min Rain = 0
KPD4 081042Z 27009KT 02/M02 A2986 RMK A01 T00211018  RH  075%=      5-min Rain = 0
KPD4 081043Z 26008KT 02/M02 A2986 RMK A01 T00221018  RH  075%=      5-min Rain = 0
KPD4 081044Z 26008KT 02/M02 A2986 RMK A01 T00211018  RH  075%=      5-min Rain = 0
KPD4 081045Z 26007KT 02/M02 A2986 RMK A01 T00211018  RH  075%=      5-min Rain = 0
KPD4 081046Z 26006KT 02/M02 A2986 RMK A01 T00211018  RH  076%=      5-min Rain = 0
KPD4 081047Z 26006KT 02/M02 A2986 RMK A01 T00201018  RH  076%=      5-min Rain = 0
KPD4 081048Z 26006KT 02/M02 A2986 RMK A01 T00201018  RH  076%=      5-min Rain = 0
KPD4 081049Z 26006KT 02/M02 A2986 RMK A01 T00191018  RH  076%=      5-min Rain = 0
KPD4 081050Z 26007KT 02/M02 A2986 RMK A01 T00191018  RH  077%=      5-min Rain = 0
KPD4 081051Z 26008KT 02/M02 A2986 RMK A01 T00191018  RH  077%=      5-min Rain = 0
KPD4 081052Z 27008KT 02/M02 A2986 RMK A01 T00201017  RH  076%=      5-min Rain = 0
KPD4 081053Z 27008KT 02/M02 A2986 RMK A01 T00211016  RH  076%=      5-min Rain = 0
KPD4 081054Z 27009KT 02/M02 A2986 RMK A01 T00221016  RH  076%=      5-min Rain = 0
KPD4 081055Z 27009KT 02/M02 A2986 RMK A01 T00241015  RH  075%=      5-min Rain = 0
KPD4 081056Z 27009KT 02/M02 A2986 RMK A01 T00241016  RH  075%=      5-min Rain = 0
KPD4 081057Z 26009KT 02/M02 A2986 RMK A01 T00241016  RH  075%=      5-min Rain = 0
KPD4 081058Z 26009KT 03/M02 A2986 RMK A01 T00251016  RH  075%=      5-min Rain = 0
KPD4 081059Z 26009KT 03/M02 A2986 RMK A01 T00251016  RH  075%=      5-min Rain = 0
KPD4 081100Z 26008KT 03/M02 A2986 RMK A01 T00251016  RH  075%=      5-min Rain = 0
KPD4 081101Z 25007KT 03/M02 A2986 RMK A01 T00251015  RH  075%=      5-min Rain = 0
KPD4 081102Z 23007KT 03/M02 A2986 RMK A01 T00251015  RH  075%=      5-min Rain = 0
KPD4 081103Z 21005KT 03/M02 A2986 RMK A01 T00251015  RH  075%=      5-min Rain = 0
KPD4 081104Z 20005KT 02/M02 A2987 RMK A01 T00241016  RH  075%=      5-min Rain = 0
KPD4 081105Z 19005KT 02/M02 A2987 RMK A01 T00221017  RH  075%=      5-min Rain = 0
KPD4 081106Z 19006KT 02/M02 A2986 RMK A01 T00221017  RH  076%=      5-min Rain = 0
KPD4 081107Z 19005KT 02/M02 A2986 RMK A01 T00211017  RH  076%=      5-min Rain = 0
KPD4 081108Z 19005KT 02/M02 A2986 RMK A01 T00211017  RH  076%=      5-min Rain = 0
KPD4 081109Z 20005KT 02/M02 A2986 RMK A01 T00211017  RH  076%=      5-min Rain = 0
KPD4 081110Z 20005KT 02/M02 A2986 RMK A01 T00221017  RH  075%=      5-min Rain = 0
KPD4 081111Z 20005KT 02/M02 A2986 RMK A01 T00221018  RH  075%=      5-min Rain = 0
KPD4 081112Z 21005KT 02/M02 A2986 RMK A01 T00221018  RH  075%=      5-min Rain = 0
KPD4 081113Z 22005KT 02/M02 A2986 RMK A01 T00211018  RH  075%=      5-min Rain = 0
KPD4 081114Z 22005KT 02/M02 A2986 RMK A01 T00211018  RH  075%=      5-min Rain = 0
KPD4 081115Z 23005KT 02/M02 A2986 RMK A01 T00211019  RH  075%=      5-min Rain = 0
KPD4 081116Z 23006KT 02/M02 A2986 RMK A01 T00201018  RH  076%=      5-min Rain = 0
KPD4 081117Z 23006KT 02/M02 A2986 RMK A01 T00211017  RH  076%=      5-min Rain = 0
KPD4 081118Z 24005KT 02/M02 A2986 RMK A01 T00211017  RH  076%=      5-min Rain = 0
KPD4 081119Z 24005KT 02/M02 A2986 RMK A01 T00211017  RH  076%=      5-min Rain = 0
KPD4 081120Z 25007KT 02/M02 A2986 RMK A01 T00211017  RH  076%=      5-min Rain = 0
KPD4 081121Z 25007KT 02/M02 A2986 RMK A01 T00211016  RH  076%=      5-min Rain = 0
KPD4 081122Z 26008KT 02/M02 A2986 RMK A01 T00221015  RH  076%=      5-min Rain = 0
KPD4 081123Z 26009KT 02/M02 A2986 RMK A01 T00231015  RH  076%=      5-min Rain = 0
KPD4 081124Z 26010KT 02/M01 A2986 RMK A01 T00241014  RH  076%=      5-min Rain = 0
KPD4 081125Z 26010KT 03/M01 A2986 RMK A01 T00251014  RH  076%=      5-min Rain = 0
KPD4 081126Z 26009KT 03/M01 A2986 RMK A01 T00271013  RH  075%=      5-min Rain = 0
KPD4 081127Z 26011KT 03/M01 A2986 RMK A01 T00281013  RH  075%=      5-min Rain = 0
KPD4 081128Z 26011KT 03/M01 A2986 RMK A01 T00291013  RH  074%=      5-min Rain = 0
KPD4 081129Z 26011KT 03/M01 A2986 RMK A01 T00291013  RH  074%=      5-min Rain = 0
KPD4 081130Z 26012KT 03/M01 A2986 RMK A01 T00301013  RH  073%=      5-min Rain = 0
KPD4 081131Z 26012KT 03/M01 A2986 RMK A01 T00311013  RH  073%=      5-min Rain = 0
KPD4 081132Z 26011KT 03/M01 A2986 RMK A01 T00311013  RH  073%=      5-min Rain = 0
KPD4 081133Z 26012KT 03/M01 A2986 RMK A01 T00311013  RH  073%=      5-min Rain = 0
KPD4 081134Z 26012KT 03/M01 A2986 RMK A01 T00311013  RH  073%=      5-min Rain = 0
KPD4 081135Z 26012KT 03/M01 A2986 RMK A01 T00311013  RH  073%=      5-min Rain = 0
KPD4 081136Z 26012KT 03/M01 A2986 RMK A01 T00311013  RH  073%=      5-min Rain = 0
KPD4 081137Z 26012KT 03/M01 A2986 RMK A01 T00311013  RH  073%=      5-min Rain = 0
KPD4 081138Z 26012KT 03/M01 A2986 RMK A01 T00311013  RH  073%=      5-min Rain = 0
KPD4 081139Z 26013KT 03/M01 A2986 RMK A01 T00311013  RH  073%=      5-min Rain = 0
KPD4 081140Z 26013KT 03/M01 A2986 RMK A01 T00311013  RH  073%=      5-min Rain = 0
KPD4 081141Z 26013KT 03/M01 A2986 RMK A01 T00311013  RH  073%=      5-min Rain = 0
KPD4 081142Z 26013KT 03/M01 A2986 RMK A01 T00311013  RH  073%=      5-min Rain = 0
KPD4 081143Z 26012KT 03/M01 A2986 RMK A01 T00311014  RH  073%=      5-min Rain = 0
KPD4 081144Z 26012KT 03/M01 A2986 RMK A01 T00301014  RH  073%=      5-min Rain = 0
KPD4 081145Z 26011KT 03/M01 A2986 RMK A01 T00291014  RH  073%=      5-min Rain = 0
KPD4 081146Z 25010KT 03/M01 A2986 RMK A01 T00291014  RH  073%=      5-min Rain = 0
KPD4 081147Z 24009KT 03/M01 A2986 RMK A01 T00281014  RH  073%=      5-min Rain = 0
KPD4 081148Z 23007KT 03/M02 A2986 RMK A01 T00271015  RH  074%=      5-min Rain = 0
KPD4 081149Z 22007KT 03/M02 A2986 RMK A01 T00251016  RH  074%=      5-min Rain = 0
KPD4 081150Z 23008KT 02/M02 A2986 RMK A01 T00231016  RH  075%=      5-min Rain = 0
KPD4 081151Z 23008KT 02/M02 A2986 RMK A01 T00221016  RH  076%=      5-min Rain = 0
KPD4 081152Z 23008KT 02/M02 A2986 RMK A01 T00221016  RH  076%=      5-min Rain = 0
KPD4 081153Z 24008KT 02/M02 A2986 RMK A01 T00211016  RH  077%=      5-min Rain = 0
KPD4 081154Z 25009KT 02/M02 A2986 RMK A01 T00211015  RH  077%=      5-min Rain = 0
KPD4 081155Z 25010KT 02/M02 A2986 RMK A01 T00211015  RH  077%=      5-min Rain = 0
KPD4 081156Z 25011KT 02/M02 A2986 RMK A01 T00211015  RH  077%=      5-min Rain = 0
KPD4 081157Z 25011KT 02/M02 A2986 RMK A01 T00221015  RH  077%=      5-min Rain = 0
KPD4 081158Z 25011KT 02/M02 A2986 RMK A01 T00221015  RH  077%=      5-min Rain = 0
KPD4 081159Z 25011KT 02/M02 A2986 RMK A01 T00221015  RH  076%=      5-min Rain = 0
KPD4 081200Z 25011KT 02/M01 A2986 RMK A01 T00231014  RH  076%=      5-min Rain = 0
KPD4 081201Z 26011KT 02/M02 A2986 RMK A01 T00231015  RH  076%=      5-min Rain = 0
KPD4 081202Z 26011KT 02/M02 A2986 RMK A01 T00231015  RH  076%=      5-min Rain = 0
KPD4 081203Z 26011KT 02/M02 A2986 RMK A01 T00231015  RH  076%=      5-min Rain = 0
KPD4 081204Z 26011KT 02/M02 A2986 RMK A01 T00221015  RH  076%=      5-min Rain = 0
KPD4 081205Z 26010KT 02/M02 A2986 RMK A01 T00231015  RH  076%=      5-min Rain = 0
KPD4 081206Z 25010KT 02/M02 A2986 RMK A01 T00221015  RH  076%=      5-min Rain = 0
KPD4 081207Z 25010KT 02/M02 A2986 RMK A01 T00221015  RH  076%=      5-min Rain = 0
KPD4 081208Z 25010KT 02/M02 A2986 RMK A01 T00211015  RH  077%=      5-min Rain = 0
KPD4 081209Z 25009KT 02/M02 A2986 RMK A01 T00211015  RH  077%=      5-min Rain = 0
KPD4 081210Z 24009KT 02/M02 A2986 RMK A01 T00211015  RH  077%=      5-min Rain = 0
KPD4 081211Z 24009KT 02/M02 A2986 RMK A01 T00211016  RH  077%=      5-min Rain = 0
KPD4 081212Z 24009KT 02/M02 A2986 RMK A01 T00201016  RH  077%=      5-min Rain = 0
KPD4 081213Z 24009KT 02/M02 A2986 RMK A01 T00191016  RH  077%=      5-min Rain = 0
KPD4 081214Z 24009KT 02/M02 A2986 RMK A01 T00181016  RH  078%=      5-min Rain = 0
KPD4 081215Z 24009KT 02/M02 A2986 RMK A01 T00181016  RH  078%=      5-min Rain = 0
KPD4 081216Z 24009KT 02/M02 A2986 RMK A01 T00191015  RH  078%=      5-min Rain = 0
KPD4 081217Z 24010KT 02/M01 A2986 RMK A01 T00201014  RH  078%=      5-min Rain = 0
KPD4 081218Z 25010KT 02/M01 A2986 RMK A01 T00221013  RH  078%=      5-min Rain = 0
KPD4 081219Z 25010KT 02/M01 A2986 RMK A01 T00221014  RH  077%=      5-min Rain = 0
KPD4 081220Z 25010KT 02/M01 A2986 RMK A01 T00231013  RH  077%=      5-min Rain = 0
KPD4 081221Z 25010KT 02/M01 A2986 RMK A01 T00231013  RH  077%=      5-min Rain = 0
KPD4 081222Z 25010KT 02/M01 A2986 RMK A01 T00231013  RH  077%=      5-min Rain = 0
KPD4 081223Z 25010KT 02/M01 A2986 RMK A01 T00241013  RH  077%=      5-min Rain = 0
KPD4 081224Z 25010KT 03/M01 A2986 RMK A01 T00251012  RH  076%=      5-min Rain = 0
KPD4 081225Z 24010KT 03/M01 A2986 RMK A01 T00261012  RH  076%=      5-min Rain = 0
KPD4 081226Z 24009KT 03/M01 A2986 RMK A01 T00261012  RH  076%=      5-min Rain = 0
KPD4 081227Z 24008KT 03/M01 A2986 RMK A01 T00261012  RH  076%=      5-min Rain = 0
KPD4 081228Z 24008KT 03/M01 A2987 RMK A01 T00251013  RH  076%=      5-min Rain = 0
KPD4 081229Z 24008KT 02/M01 A2987 RMK A01 T00241013  RH  077%=      5-min Rain = 0
KPD4 081230Z 24007KT 02/M01 A2987 RMK A01 T00231013  RH  077%=      5-min Rain = 0
KPD4 081231Z 24007KT 02/M01 A2987 RMK A01 T00241013  RH  077%=      5-min Rain = 0
KPD4 081232Z 24008KT 02/M01 A2987 RMK A01 T00241013  RH  077%=      5-min Rain = 0
KPD4 081233Z 23007KT 02/M01 A2987 RMK A01 T00231013  RH  077%=      5-min Rain = 0
KPD4 081234Z 23007KT 02/M01 A2987 RMK A01 T00231014  RH  077%=      5-min Rain = 0
KPD4 081235Z 23007KT 02/M01 A2987 RMK A01 T00231013  RH  077%=      5-min Rain = 0
KPD4 081236Z 23007KT 02/M01 A2986 RMK A01 T00221013  RH  077%=      5-min Rain = 0
KPD4 081237Z 24007KT 02/M01 A2986 RMK A01 T00231013  RH  077%=      5-min Rain = 0
KPD4 081238Z 24007KT 02/M01 A2986 RMK A01 T00231013  RH  077%=      5-min Rain = 0
KPD4 081239Z 24007KT 02/M01 A2986 RMK A01 T00241012  RH  077%=      5-min Rain = 0
KPD4 081240Z 25007KT 03/M01 A2986 RMK A01 T00251011  RH  077%=      5-min Rain = 0
KPD4 081241Z 25007KT 03/M01 A2986 RMK A01 T00261011  RH  077%=      5-min Rain = 0
KPD4 081242Z 25007KT 03/M01 A2986 RMK A01 T00261011  RH  076%=      5-min Rain = 0
KPD4 081243Z 25007KT 03/M01 A2986 RMK A01 T00261011  RH  076%=      5-min Rain = 0
KPD4 081244Z 25007KT 03/M01 A2986 RMK A01 T00271011  RH  076%=      5-min Rain = 0
KPD4 081245Z 25007KT 03/M01 A2986 RMK A01 T00281010  RH  076%=      5-min Rain = 0
KPD4 081246Z 25007KT 03/M01 A2986 RMK A01 T00291009  RH  076%=      5-min Rain = 0
KPD4 081247Z 25006KT 03/M01 A2986 RMK A01 T00301009  RH  075%=      5-min Rain = 0
KPD4 081248Z 25006KT 03/M01 A2986 RMK A01 T00301009  RH  075%=      5-min Rain = 0
KPD4 081249Z 24006KT 03/M01 A2987 RMK A01 T00301009  RH  075%=      5-min Rain = 0
KPD4 081250Z 23005KT 03/M01 A2987 RMK A01 T00301010  RH  075%=      5-min Rain = 0
KPD4 081251Z 23005KT 03/M01 A2987 RMK A01 T00271014  RH  075%=      5-min Rain = 0
KPD4 081252Z 23005KT 02/M02 A2987 RMK A01 T00241015  RH  075%=      5-min Rain = 0
KPD4 081253Z 24005KT 02/M01 A2987 RMK A01 T00231014  RH  077%=      5-min Rain = 0
KPD4 081254Z 24005KT 02/M01 A2987 RMK A01 T00231012  RH  077%=      5-min Rain = 0
KPD4 081255Z 24006KT 02/M01 A2987 RMK A01 T00231011  RH  078%=      5-min Rain = 0
KPD4 081256Z 25005KT 02/M01 A2987 RMK A01 T00241009  RH  078%=      5-min Rain = 0
KPD4 081257Z 25006KT 03/M01 A2987 RMK A01 T00281006  RH  078%=      5-min Rain = 0
KPD4 081258Z 25007KT 03/M00 A2987 RMK A01 T00321004  RH  077%=      5-min Rain = 0
KPD4 081259Z 25007KT 04/M00 A2987 RMK A01 T00351003  RH  076%=      5-min Rain = 0
KPD4 081300Z 24006KT 04/M00 A2986 RMK A01 T00381003  RH  075%=      5-min Rain = 0
KPD4 081301Z 24007KT 04/M00 A2986 RMK A01 T00401003  RH  074%=      5-min Rain = 0
KPD4 081302Z 25008KT 04/M00 A2986 RMK A01 T00411002  RH  073%=      5-min Rain = 0
KPD4 081303Z 24007KT 04/M00 A2986 RMK A01 T00431002  RH  072%=      5-min Rain = 0
KPD4 081304Z 24007KT 05/M00 A2986 RMK A01 T00451001  RH  072%=      5-min Rain = 0
KPD4 081305Z 24007KT 05/M00 A2986 RMK A01 T00461001  RH  071%=      5-min Rain = 0
KPD4 081306Z 24007KT 05/00 A2986 RMK A01 T004800-0  RH  071%=      5-min Rain = 0
KPD4 081307Z 24006KT 05/00 A2986 RMK A01 T00490000  RH  070%=      5-min Rain = 0
KPD4 081308Z 24007KT 05/00 A2986 RMK A01 T00510000  RH  070%=      5-min Rain = 0
KPD4 081309Z 24007KT 05/00 A2986 RMK A01 T00520000  RH  069%=      5-min Rain = 0
KPD4 081310Z 24008KT 05/00 A2986 RMK A01 T00540001  RH  068%=      5-min Rain = 0
KPD4 081311Z 25008KT 06/00 A2986 RMK A01 T00560001  RH  068%=      5-min Rain = 0
KPD4 081312Z 25008KT 06/00 A2986 RMK A01 T00580002  RH  067%=      5-min Rain = 0
KPD4 081313Z 25008KT 06/00 A2986 RMK A01 T00600003  RH  067%=      5-min Rain = 0
KPD4 081314Z 24008KT 06/00 A2986 RMK A01 T00610004  RH  067%=      5-min Rain = 0
KPD4 081315Z 25009KT 06/00 A2986 RMK A01 T00630004  RH  066%=      5-min Rain = 0
KPD4 081316Z 25010KT 07/00 A2986 RMK A01 T00650004  RH  065%=      5-min Rain = 0
KPD4 081317Z 24009KT 07/00 A2986 RMK A01 T00670003  RH  064%=      5-min Rain = 0
KPD4 081318Z 24010KT 07/00 A2986 RMK A01 T00680004  RH  064%=      5-min Rain = 0
KPD4 081319Z 25010KT 07/00 A2986 RMK A01 T00700004  RH  063%=      5-min Rain = 0
KPD4 081320Z 25010KT 07/01 A2986 RMK A01 T00720005  RH  062%=      5-min Rain = 0
KPD4 081321Z 25010KT 07/01 A2986 RMK A01 T00730006  RH  062%=      5-min Rain = 0
KPD4 081322Z 25010KT 08/01 A2986 RMK A01 T00750005  RH  062%=      5-min Rain = 0
KPD4 081323Z 25010KT 08/01 A2986 RMK A01 T00760005  RH  061%=      5-min Rain = 0
KPD4 081324Z 25009KT 08/01 A2986 RMK A01 T00770006  RH  061%=      5-min Rain = 0
KPD4 081325Z 25010KT 08/01 A2986 RMK A01 T00790007  RH  060%=      5-min Rain = 0
KPD4 081326Z 25011KT 08/01 A2986 RMK A01 T00800006  RH  060%=      5-min Rain = 0
KPD4 081327Z 25011KT 08/01 A2986 RMK A01 T00820007  RH  059%=      5-min Rain = 0
KPD4 081328Z 25010KT 08/01 A2986 RMK A01 T00830008  RH  059%=      5-min Rain = 0
KPD4 081329Z 25010KT 09/01 A2986 RMK A01 T00850008  RH  058%=      5-min Rain = 0
KPD4 081330Z 25011KT 09/01 A2986 RMK A01 T00860007  RH  058%=      5-min Rain = 0
KPD4 081331Z 25013KT 09/01 A2986 RMK A01 T00880007  RH  057%=      5-min Rain = 0
KPD4 081332Z 25011KT 09/01 A2986 RMK A01 T00890007  RH  057%=      5-min Rain = 0
KPD4 081333Z 25010KT 09/01 A2986 RMK A01 T00900008  RH  057%=      5-min Rain = 0
KPD4 081334Z 25011KT 09/01 A2986 RMK A01 T00910008  RH  056%=      5-min Rain = 0
KPD4 081335Z 24012KT 09/01 A2986 RMK A01 T00920008  RH  056%=      5-min Rain = 0
KPD4 081336Z 25010KT 09/01 A2986 RMK A01 T00930008  RH  055%=      5-min Rain = 0
KPD4 081337Z 24011KT 10/01 A2986 RMK A01 T00950009  RH  055%=      5-min Rain = 0
KPD4 081338Z 25010KT 10/01 A2986 RMK A01 T00960009  RH  055%=      5-min Rain = 0
KPD4 081339Z 25011KT 10/01 A2986 RMK A01 T00970009  RH  054%=      5-min Rain = 0
KPD4 081340Z 25011KT 10/01 A2986 RMK A01 T00990009  RH  054%=      5-min Rain = 0
KPD4 081341Z 25011KT 10/01 A2986 RMK A01 T01000010  RH  054%=      5-min Rain = 0
KPD4 081342Z 25012KT 10/01 A2986 RMK A01 T01020010  RH  053%=      5-min Rain = 0
KPD4 081343Z 25012KT 10/01 A2986 RMK A01 T01020009  RH  052%=      5-min Rain = 0
KPD4 081344Z 25011KT 10/01 A2986 RMK A01 T01040010  RH  052%=      5-min Rain = 0
KPD4 081345Z 24012KT 11/01 A2986 RMK A01 T01050011  RH  052%=      5-min Rain = 0
KPD4 081346Z 25012KT 11/01 A2986 RMK A01 T01060009  RH  051%=      5-min Rain = 0
KPD4 081347Z 24011KT 11/01 A2986 RMK A01 T01060010  RH  051%=      5-min Rain = 0
KPD4 081348Z 25011KT 11/01 A2986 RMK A01 T01070010  RH  051%=      5-min Rain = 0
KPD4 081349Z 25011KT 11/01 A2986 RMK A01 T01090012  RH  051%=      5-min Rain = 0
KPD4 081350Z 24012KT 11/01 A2986 RMK A01 T01090011  RH  051%=      5-min Rain = 0
KPD4 081351Z 25013KT 11/01 A2986 RMK A01 T01100011  RH  050%=      5-min Rain = 0
KPD4 081352Z 24012KT 11/01 A2986 RMK A01 T01110010  RH  050%=      5-min Rain = 0
KPD4 081353Z 24012KT 11/01 A2986 RMK A01 T01110011  RH  050%=      5-min Rain = 0
KPD4 081354Z 25013KT 11/01 A2986 RMK A01 T01120011  RH  050%=      5-min Rain = 0
KPD4 081355Z 25015KT 11/01 A2986 RMK A01 T01130010  RH  049%=      5-min Rain = 0
KPD4 081356Z 25015KT 11/01 A2986 RMK A01 T01130009  RH  049%=      5-min Rain = 0
KPD4 081357Z 25014KT 11/01 A2986 RMK A01 T01140010  RH  049%=      5-min Rain = 0
KPD4 081358Z 25013KT 12/01 A2986 RMK A01 T01150010  RH  049%=      5-min Rain = 0
KPD4 081359Z 25016KT 12/01 A2986 RMK A01 T01170011  RH  048%=      5-min Rain = 0
KPD4 081400Z 25018KT 12/01 A2986 RMK A01 T01170009  RH  047%=      5-min Rain = 0
KPD4 081401Z 26017KT 12/01 A2986 RMK A01 T01180009  RH  047%=      5-min Rain = 0
KPD4 081402Z 25019KT 12/01 A2986 RMK A01 T01180009  RH  047%=      5-min Rain = 0
KPD4 081403Z 26014KT 12/01 A2986 RMK A01 T01190009  RH  047%=      5-min Rain = 0
KPD4 081404Z 25017KT 12/01 A2986 RMK A01 T01200011  RH  047%=      5-min Rain = 0
KPD4 081405Z 26017KT 12/01 A2986 RMK A01 T01210009  RH  046%=      5-min Rain = 0
KPD4 081406Z 26018KT 12/01 A2986 RMK A01 T01210010  RH  047%=      5-min Rain = 0
KPD4 081407Z 26018KT 12/01 A2986 RMK A01 T01220009  RH  046%=      5-min Rain = 0
KPD4 081408Z 26018KT 12/01 A2986 RMK A01 T01230009  RH  046%=      5-min Rain = 0
KPD4 081409Z 26016KT 12/01 A2986 RMK A01 T01230009  RH  046%=      5-min Rain = 0
KPD4 081410Z 26016KT 12/01 A2986 RMK A01 T01240012  RH  046%=      5-min Rain = 0
KPD4 081411Z 26016KT 13/01 A2986 RMK A01 T01250010  RH  045%=      5-min Rain = 0
KPD4 081412Z 26016KT 13/01 A2986 RMK A01 T01260011  RH  045%=      5-min Rain = 0
KPD4 081413Z 26017KT 13/01 A2986 RMK A01 T01280011  RH  045%=      5-min Rain = 0
KPD4 081414Z 26017KT 13/01 A2986 RMK A01 T01280011  RH  045%=      5-min Rain = 0
KPD4 081415Z 26014KT 13/01 A2986 RMK A01 T01290012  RH  045%=      5-min Rain = 0
KPD4 081416Z 25016KT 13/01 A2986 RMK A01 T01310014  RH  045%=      5-min Rain = 0
KPD4 081417Z 26016KT 13/01 A2985 RMK A01 T01330012  RH  044%=      5-min Rain = 0
KPD4 081418Z 26012KT 13/01 A2986 RMK A01 T01330014  RH  044%=      5-min Rain = 0
KPD4 081419Z 26015KT 14/02 A2986 RMK A01 T01360015  RH  044%=      5-min Rain = 0
KPD4 081420Z 26015KT 14/01 A2986 RMK A01 T01360013  RH  043%=      5-min Rain = 0
KPD4 081421Z 26014KT 14/01 A2986 RMK A01 T01360014  RH  043%=      5-min Rain = 0
KPD4 081422Z 26013KT 14/01 A2986 RMK A01 T01380014  RH  043%=      5-min Rain = 0
KPD4 081423Z 25014KT 14/02 A2986 RMK A01 T01390015  RH  043%=      5-min Rain = 0
KPD4 081424Z 25017KT 14/01 A2985 RMK A01 T01400012  RH  042%=      5-min Rain = 0
KPD4 081425Z 26017KT 14/01 A2985 RMK A01 T01400011  RH  042%=      5-min Rain = 0
KPD4 081426Z 25014KT 14/01 A2985 RMK A01 T01390012  RH  042%=      5-min Rain = 0
KPD4 081427Z 25018KT 14/01 A2985 RMK A01 T01410013  RH  042%=      5-min Rain = 0
KPD4 081428Z 25018KT 14/01 A2985 RMK A01 T01410010  RH  041%=      5-min Rain = 0
KPD4 081429Z 26017KT 14/01 A2985 RMK A01 T01410010  RH  041%=      5-min Rain = 0
KPD4 081430Z 26016KT 14/01 A2985 RMK A01 T01410011  RH  041%=      5-min Rain = 0
KPD4 081431Z 26015KT 14/01 A2985 RMK A01 T01430013  RH  041%=      5-min Rain = 0
KPD4 081432Z 25017G23KT 15/01 A2985 RMK A01 T01460012  RH  040%=      5-min Rain = 0
KPD4 081433Z 26019G24KT 15/01 A2985 RMK A01 T01450008  RH  039%=      5-min Rain = 0
KPD4 081434Z 26021KT 15/01 A2985 RMK A01 T01450008  RH  039%=      5-min Rain = 0
KPD4 081435Z 26022KT 14/01 A2985 RMK A01 T01440007  RH  039%=      5-min Rain = 0
KPD4 081436Z 26018KT 15/01 A2985 RMK A01 T01450008  RH  039%=      5-min Rain = 0
KPD4 081437Z 26016KT 15/01 A2985 RMK A01 T01460010  RH  040%=      5-min Rain = 0
KPD4 081438Z 26018G23KT 15/01 A2985 RMK A01 T01480011  RH  039%=      5-min Rain = 0
KPD4 081439Z 26020KT 15/01 A2985 RMK A01 T01480008  RH  038%=      5-min Rain = 0
KPD4 081440Z 26017KT 15/01 A2985 RMK A01 T01480010  RH  039%=      5-min Rain = 0
KPD4 081441Z 26017KT 15/01 A2985 RMK A01 T01500011  RH  039%=      5-min Rain = 0
KPD4 081442Z 25018KT 15/01 A2985 RMK A01 T01510011  RH  039%=      5-min Rain = 0
KPD4 081443Z 26017KT 15/01 A2985 RMK A01 T01520011  RH  038%=      5-min Rain = 0
KPD4 081444Z 26019KT 15/01 A2985 RMK A01 T01510010  RH  038%=      5-min Rain = 0
KPD4 081445Z 26018KT 15/01 A2985 RMK A01 T01510009  RH  038%=      5-min Rain = 0
KPD4 081446Z 25015KT 15/01 A2985 RMK A01 T01510011  RH  039%=      5-min Rain = 0
KPD4 081447Z 25015KT 15/02 A2985 RMK A01 T01540016  RH  039%=      5-min Rain = 0
KPD4 081448Z 25014KT 16/02 A2985 RMK A01 T01550015  RH  039%=      5-min Rain = 0
KPD4 081449Z 26016KT 16/02 A2985 RMK A01 T01560015  RH  039%=      5-min Rain = 0
KPD4 081450Z 25014KT 16/02 A2985 RMK A01 T01560016  RH  039%=      5-min Rain = 0
KPD4 081451Z 26015KT 16/02 A2985 RMK A01 T01570016  RH  039%=      5-min Rain = 0
KPD4 081452Z 26014KT 16/02 A2985 RMK A01 T01580016  RH  038%=      5-min Rain = 0
KPD4 081453Z 26015KT 16/02 A2985 RMK A01 T01590019  RH  039%=      5-min Rain = 0
KPD4 081454Z 26014KT 16/02 A2985 RMK A01 T01600017  RH  038%=      5-min Rain = 0
KPD4 081455Z 26014KT 16/02 A2985 RMK A01 T01590018  RH  038%=      5-min Rain = 0
KPD4 081456Z 25015KT 16/02 A2985 RMK A01 T01610017  RH  038%=      5-min Rain = 0
KPD4 081457Z 25014KT 16/02 A2985 RMK A01 T01630017  RH  037%=      5-min Rain = 0
KPD4 081458Z 25013KT 17/02 A2985 RMK A01 T01650020  RH  038%=      5-min Rain = 0
KPD4 081459Z 25014KT 17/02 A2985 RMK A01 T01690020  RH  037%=      5-min Rain = 0
KPD4 081500Z 26015KT 17/02 A2985 RMK A01 T01700016  RH  035%=      5-min Rain = 0
KPD4 081501Z 26013KT 17/02 A2985 RMK A01 T01680017  RH  036%=      5-min Rain = 0
KPD4 081502Z 25015KT 17/02 A2985 RMK A01 T01680017  RH  036%=      5-min Rain = 0
KPD4 081503Z 25013KT 17/02 A2985 RMK A01 T01680017  RH  036%=      5-min Rain = 0
KPD4 081504Z 26014KT 17/02 A2985 RMK A01 T01680019  RH  037%=      5-min Rain = 0
KPD4 081505Z 25014KT 17/02 A2985 RMK A01 T01700019  RH  036%=      5-min Rain = 0
KPD4 081506Z 24017KT 17/02 A2985 RMK A01 T01710015  RH  035%=      5-min Rain = 0
KPD4 081507Z 24019KT 17/01 A2985 RMK A01 T01710012  RH  034%=      5-min Rain = 0
KPD4 081508Z 25019KT 17/01 A2985 RMK A01 T01710011  RH  034%=      5-min Rain = 0
KPD4 081509Z 25019KT 17/01 A2985 RMK A01 T01680010  RH  034%=      5-min Rain = 0
KPD4 081510Z 25016KT 17/01 A2985 RMK A01 T01670012  RH  035%=      5-min Rain = 0
KPD4 081511Z 25017KT 17/02 A2985 RMK A01 T01710015  RH  035%=      5-min Rain = 0
KPD4 081512Z 24016KT 17/02 A2985 RMK A01 T01720015  RH  035%=      5-min Rain = 0
KPD4 081513Z 25017KT 17/02 A2985 RMK A01 T01740017  RH  035%=      5-min Rain = 0
KPD4 081514Z 25016KT 17/02 A2985 RMK A01 T01740015  RH  034%=      5-min Rain = 0
KPD4 081515Z 24016KT 17/02 A2985 RMK A01 T01730016  RH  035%=      5-min Rain = 0
KPD4 081516Z 25016KT 17/02 A2985 RMK A01 T01730017  RH  035%=      5-min Rain = 0
KPD4 081517Z 25017KT 17/02 A2985 RMK A01 T01740016  RH  034%=      5-min Rain = 0
KPD4 081518Z 25016KT 18/02 A2985 RMK A01 T01750016  RH  034%=      5-min Rain = 0
KPD4 081519Z 25015KT 18/02 A2985 RMK A01 T01760019  RH  035%=      5-min Rain = 0
KPD4 081520Z 24018KT 18/02 A2985 RMK A01 T01790017  RH  034%=      5-min Rain = 0
KPD4 081521Z 24019KT 18/01 A2985 RMK A01 T01790013  RH  033%=      5-min Rain = 0
KPD4 081522Z 24020KT 18/01 A2985 RMK A01 T01780013  RH  033%=      5-min Rain = 0
KPD4 081523Z 25019KT 18/01 A2985 RMK A01 T01780012  RH  033%=      5-min Rain = 0
KPD4 081524Z 25017KT 18/01 A2985 RMK A01 T01790014  RH  033%=      5-min Rain = 0
KPD4 081525Z 25017KT 18/02 A2985 RMK A01 T01800015  RH  033%=      5-min Rain = 0
KPD4 081526Z 25017KT 18/01 A2985 RMK A01 T01800013  RH  032%=      5-min Rain = 0
KPD4 081527Z 24015KT 18/02 A2985 RMK A01 T01810016  RH  033%=      5-min Rain = 0
KPD4 081528Z 24017KT 18/02 A2985 RMK A01 T01840017  RH  033%=      5-min Rain = 0
KPD4 081529Z 24017KT 18/01 A2985 RMK A01 T01820014  RH  032%=      5-min Rain = 0
KPD4 081530Z 24016KT 18/02 A2985 RMK A01 T01820017  RH  033%=      5-min Rain = 0
KPD4 081531Z 25018KT 18/02 A2985 RMK A01 T01830018  RH  033%=      5-min Rain = 0
KPD4 081532Z 25015KT 18/02 A2985 RMK A01 T01830016  RH  033%=      5-min Rain = 0
KPD4 081533Z 24016KT 18/02 A2985 RMK A01 T01840018  RH  033%=      5-min Rain = 0
KPD4 081534Z 24015KT 18/02 A2985 RMK A01 T01840017  RH  033%=      5-min Rain = 0
KPD4 081535Z 25015KT 19/02 A2985 RMK A01 T01850018  RH  033%=      5-min Rain = 0
KPD4 081536Z 25015KT 19/02 A2985 RMK A01 T01890018  RH  032%=      5-min Rain = 0
KPD4 081537Z 23014KT 19/02 A2985 RMK A01 T01900019  RH  032%=      5-min Rain = 0
KPD4 081538Z 24016KT 19/02 A2985 RMK A01 T01890018  RH  032%=      5-min Rain = 0
KPD4 081539Z 25014KT 19/02 A2985 RMK A01 T01890019  RH  032%=      5-min Rain = 0
KPD4 081540Z 25016KT 19/02 A2985 RMK A01 T01890020  RH  032%=      5-min Rain = 0
KPD4 081541Z 24014KT 19/02 A2985 RMK A01 T01900021  RH  032%=      5-min Rain = 0
KPD4 081542Z 25014KT 19/02 A2985 RMK A01 T01910023  RH  033%=      5-min Rain = 0
KPD4 081543Z 24013KT 19/02 A2985 RMK A01 T01930022  RH  032%=      5-min Rain = 0
KPD4 081544Z 23016KT 20/02 A2984 RMK A01 T01950022  RH  032%=      5-min Rain = 0
KPD4 081545Z 23016KT 20/02 A2984 RMK A01 T01950018  RH  031%=      5-min Rain = 0
KPD4 081546Z 24017KT 20/02 A2984 RMK A01 T01950019  RH  031%=      5-min Rain = 0
KPD4 081547Z 24017KT 19/02 A2984 RMK A01 T01940018  RH  031%=      5-min Rain = 0
KPD4 081548Z 24018KT 20/02 A2984 RMK A01 T01950015  RH  030%=      5-min Rain = 0
KPD4 081549Z 25017KT 19/01 A2984 RMK A01 T01940014  RH  030%=      5-min Rain = 0
KPD4 081550Z 24017KT 19/02 A2984 RMK A01 T01940016  RH  030%=      5-min Rain = 0
KPD4 081551Z 25018KT 19/02 A2984 RMK A01 T01930017  RH  031%=      5-min Rain = 0
KPD4 081552Z 25016KT 19/02 A2984 RMK A01 T01920019  RH  031%=      5-min Rain = 0
KPD4 081553Z 25015G21KT 19/02 A2984 RMK A01 T01930019  RH  031%=      5-min Rain = 0
KPD4 081554Z 23018KT 20/02 A2984 RMK A01 T01950018  RH  031%=      5-min Rain = 0
KPD4 081555Z 24016KT 20/02 A2984 RMK A01 T01950015  RH  030%=      5-min Rain = 0
KPD4 081556Z 24015KT 19/02 A2984 RMK A01 T01940015  RH  030%=      5-min Rain = 0
KPD4 081557Z 24013KT 20/02 A2985 RMK A01 T01980019  RH  030%=      5-min Rain = 0
KPD4 081558Z 25018KT 20/02 A2984 RMK A01 T02010015  RH  029%=      5-min Rain = 0
KPD4 081559Z 25017KT 20/01 A2984 RMK A01 T01980012  RH  029%=      5-min Rain = 0
KPD4 081600Z 24015KT 20/02 A2985 RMK A01 T01970016  RH  030%=      5-min Rain = 0
KPD4 081601Z 25015KT 20/02 A2985 RMK A01 T01980019  RH  030%=      5-min Rain = 0
KPD4 081602Z 25014KT 20/02 A2985 RMK A01 T02000018  RH  030%=      5-min Rain = 0
KPD4 081603Z 25016KT 20/02 A2984 RMK A01 T02010021  RH  030%=      5-min Rain = 0
KPD4 081604Z 25015KT 20/02 A2984 RMK A01 T02020021  RH  030%=      5-min Rain = 0
KPD4 081605Z 24017KT 20/02 A2984 RMK A01 T02020019  RH  030%=      5-min Rain = 0
KPD4 081606Z 23019KT 20/02 A2984 RMK A01 T02020015  RH  029%=      5-min Rain = 0
KPD4 081607Z 23017KT 20/01 A2984 RMK A01 T02010014  RH  029%=      5-min Rain = 0
KPD4 081608Z 24015KT 20/02 A2985 RMK A01 T02010018  RH  030%=      5-min Rain = 0
KPD4 081609Z 24015KT 20/02 A2985 RMK A01 T02030019  RH  029%=      5-min Rain = 0
KPD4 081610Z 25014KT 20/02 A2985 RMK A01 T02040019  RH  029%=      5-min Rain = 0
KPD4 081611Z 24013KT 20/02 A2985 RMK A01 T02040018  RH  029%=      5-min Rain = 0
KPD4 081612Z 23017KT 21/02 A2984 RMK A01 T02050017  RH  029%=      5-min Rain = 0
KPD4 081613Z 23018KT 21/01 A2984 RMK A01 T02050013  RH  028%=      5-min Rain = 0
KPD4 081614Z 23018KT 20/01 A2984 RMK A01 T02040012  RH  028%=      5-min Rain = 0
KPD4 081615Z 23016KT 20/01 A2984 RMK A01 T02040014  RH  028%=      5-min Rain = 0
KPD4 081616Z 24016KT 20/01 A2984 RMK A01 T02040011  RH  028%=      5-min Rain = 0
KPD4 081617Z 24017KT 20/01 A2984 RMK A01 T02030012  RH  028%=      5-min Rain = 0
KPD4 081618Z 24016KT 21/02 A2984 RMK A01 T02050015  RH  028%=      5-min Rain = 0
KPD4 081619Z 23016KT 21/01 A2984 RMK A01 T02070014  RH  028%=      5-min Rain = 0
KPD4 081620Z 25015KT 21/02 A2984 RMK A01 T02070017  RH  028%=      5-min Rain = 0
KPD4 081621Z 25015KT 21/02 A2984 RMK A01 T02090016  RH  028%=      5-min Rain = 0
KPD4 081622Z 25014KT 21/02 A2984 RMK A01 T02090019  RH  028%=      5-min Rain = 0
KPD4 081623Z 25016KT 21/02 A2984 RMK A01 T02110015  RH  027%=      5-min Rain = 0
KPD4 081624Z 25013KT 21/01 A2984 RMK A01 T02100012  RH  027%=      5-min Rain = 0
KPD4 081625Z 24014KT 21/02 A2984 RMK A01 T02110016  RH  028%=      5-min Rain = 0
KPD4 081626Z 24013KT 21/02 A2984 RMK A01 T02120017  RH  028%=      5-min Rain = 0
KPD4 081627Z 25013G19KT 21/02 A2984 RMK A01 T02130017  RH  027%=      5-min Rain = 0
KPD4 081628Z 25018KT 21/02 A2984 RMK A01 T02130017  RH  027%=      5-min Rain = 0
KPD4 081629Z 24015KT 21/02 A2984 RMK A01 T02120018  RH  028%=      5-min Rain = 0
KPD4 081630Z 23017KT 21/02 A2984 RMK A01 T02110018  RH  028%=      5-min Rain = 0
KPD4 081631Z 24019G24KT 21/02 A2983 RMK A01 T02120015  RH  027%=      5-min Rain = 0
KPD4 081632Z 23018KT 21/01 A2983 RMK A01 T02120014  RH  027%=      5-min Rain = 0
KPD4 081633Z 23019KT 21/01 A2983 RMK A01 T02110013  RH  027%=      5-min Rain = 0
KPD4 081634Z 23018KT 21/01 A2983 RMK A01 T02110011  RH  027%=      5-min Rain = 0
KPD4 081635Z 23017KT 21/01 A2983 RMK A01 T02110012  RH  027%=      5-min Rain = 0
KPD4 081636Z 22016KT 21/01 A2983 RMK A01 T02120012  RH  026%=      5-min Rain = 0
KPD4 081637Z 23015KT 22/01 A2983 RMK A01 T02150011  RH  026%=      5-min Rain = 0
KPD4 081638Z 24016G21KT 22/01 A2984 RMK A01 T02190014  RH  026%=      5-min Rain = 0
KPD4 081639Z 24016G22KT 22/01 A2984 RMK A01 T02220011  RH  025%=      5-min Rain = 0
KPD4 081640Z 24018KT 22/01 A2983 RMK A01 T02220009  RH  024%=      5-min Rain = 0
KPD4 081641Z 23020KT 22/00 A2983 RMK A01 T02190003  RH  024%=      5-min Rain = 0
KPD4 081642Z 24018KT 22/00 A2983 RMK A01 T02180003  RH  024%=      5-min Rain = 0
KPD4 081643Z 25018KT 22/00 A2983 RMK A01 T02170003  RH  024%=      5-min Rain = 0
KPD4 081644Z 25021KT 22/00 A2983 RMK A01 T02170004  RH  024%=      5-min Rain = 0
KPD4 081645Z 23018KT 22/01 A2983 RMK A01 T02160005  RH  025%=      5-min Rain = 0
KPD4 081646Z 23019G24KT 22/00 A2983 RMK A01 T02180004  RH  024%=      5-min Rain = 0
KPD4 081647Z 24017KT 22/M00 A2983 RMK A01 T02201003  RH  023%=      5-min Rain = 0
KPD4 081648Z 24020G25KT 22/M00 A2983 RMK A01 T02191004  RH  023%=      5-min Rain = 0
KPD4 081649Z 24019G24KT 22/M01 A2983 RMK A01 T02191005  RH  023%=      5-min Rain = 0
KPD4 081650Z 24021KT 22/M00 A2983 RMK A01 T02181004  RH  023%=      5-min Rain = 0
KPD4 081651Z 25018G23KT 22/M00 A2983 RMK A01 T02181004  RH  023%=      5-min Rain = 0
KPD4 081652Z 25019KT 22/00 A2983 RMK A01 T02180001  RH  024%=      5-min Rain = 0
KPD4 081653Z 24019KT 22/00 A2983 RMK A01 T02180000  RH  023%=      5-min Rain = 0
KPD4 081654Z 24018KT 22/M00 A2983 RMK A01 T02161002  RH  023%=      5-min Rain = 0
KPD4 081655Z 25019G25KT 22/00 A2983 RMK A01 T02200002  RH  024%=      5-min Rain = 0
KPD4 081656Z 25018G23KT 22/M01 A2983 RMK A01 T02231010  RH  021%=      5-min Rain = 0
KPD4 081657Z 24015G21KT 22/M00 A2983 RMK A01 T02221004  RH  022%=      5-min Rain = 0
KPD4 081658Z 23021G26KT 23/M00 A2983 RMK A01 T02251004  RH  022%=      5-min Rain = 0
KPD4 081659Z 23019G24KT 22/M00 A2983 RMK A01 T02231004  RH  022%=      5-min Rain = 0
KPD4 081700Z 23019KT 22/M00 A2983 RMK A01 T02201002  RH  023%=      5-min Rain = 0
KPD4 081701Z 22017KT 22/00 A2983 RMK A01 T02210003  RH  023%=      5-min Rain = 0
KPD4 081702Z 23016KT 22/00 A2983 RMK A01 T02220002  RH  023%=      5-min Rain = 0
KPD4 081703Z 25021G26KT 22/00 A2983 RMK A01 T02220001  RH  023%=      5-min Rain = 0
KPD4 081704Z 25019KT 22/M00 A2983 RMK A01 T02191004  RH  023%=      5-min Rain = 0
KPD4 081705Z 25018KT 22/00 A2983 RMK A01 T02170001  RH  024%=      5-min Rain = 0
KPD4 081706Z 23017KT 22/00 A2982 RMK A01 T02170002  RH  024%=      5-min Rain = 0
KPD4 081707Z 23016G22KT 22/01 A2982 RMK A01 T02210006  RH  024%=      5-min Rain = 0
KPD4 081708Z 23021KT 23/00 A2982 RMK A01 T02260004  RH  023%=      5-min Rain = 0
KPD4 081709Z 23019G24KT 23/00 A2982 RMK A01 T02250002  RH  023%=      5-min Rain = 0
KPD4 081710Z 23020KT 22/00 A2982 RMK A01 T02230002  RH  023%=      5-min Rain = 0
KPD4 081711Z 22018KT 22/00 A2982 RMK A01 T02240001  RH  023%=      5-min Rain = 0
KPD4 081712Z 23019KT 22/M00 A2982 RMK A01 T02211001  RH  023%=      5-min Rain = 0
KPD4 081713Z 22016KT 22/00 A2982 RMK A01 T02230003  RH  023%=      5-min Rain = 0
KPD4 081714Z 22019KT 23/00 A2982 RMK A01 T02270003  RH  023%=      5-min Rain = 0
KPD4 081715Z 23021KT 23/00 A2982 RMK A01 T02280002  RH  022%=      5-min Rain = 0
KPD4 081716Z 22020KT 23/M00 A2982 RMK A01 T02261004  RH  022%=      5-min Rain = 0
KPD4 081717Z 23020KT 22/M00 A2982 RMK A01 T02231001  RH  022%=      5-min Rain = 0
KPD4 081718Z 23019KT 22/00 A2981 RMK A01 T022300-0  RH  023%=      5-min Rain = 0
KPD4 081719Z 24020KT 22/00 A2981 RMK A01 T02230000  RH  023%=      5-min Rain = 0
KPD4 081720Z 23019G26KT 23/00 A2981 RMK A01 T02260000  RH  022%=      5-min Rain = 0
KPD4 081721Z 24021G26KT 23/M00 A2981 RMK A01 T02271002  RH  022%=      5-min Rain = 0
KPD4 081722Z 25023KT 23/M00 A2981 RMK A01 T02251004  RH  022%=      5-min Rain = 0
KPD4 081723Z 25019G24KT 22/M01 A2981 RMK A01 T02211008  RH  022%=      5-min Rain = 0
KPD4 081724Z 26020KT 22/M01 A2981 RMK A01 T02191006  RH  022%=      5-min Rain = 0
KPD4 081725Z 25021KT 22/M00 A2981 RMK A01 T02201002  RH  023%=      5-min Rain = 0
KPD4 081726Z 23020KT 22/M00 A2981 RMK A01 T02221002  RH  023%=      5-min Rain = 0
KPD4 081727Z 24019KT 22/M01 A2981 RMK A01 T02231005  RH  022%=      5-min Rain = 0
KPD4 081728Z 24017KT 22/M00 A2981 RMK A01 T02221004  RH  022%=      5-min Rain = 0
KPD4 081729Z 24017KT 23/00 A2981 RMK A01 T02250001  RH  023%=      5-min Rain = 0
KPD4 081730Z 24018KT 23/00 A2981 RMK A01 T02290001  RH  022%=      5-min Rain = 0
KPD4 081731Z 23020KT 23/M00 A2981 RMK A01 T02281003  RH  022%=      5-min Rain = 0
KPD4 081732Z 24021G28KT 23/M01 A2981 RMK A01 T02251006  RH  021%=      5-min Rain = 0
KPD4 081733Z 25021KT 22/M01 A2981 RMK A01 T02241005  RH  022%=      5-min Rain = 0
KPD4 081734Z 25024KT 23/M00 A2981 RMK A01 T02261002  RH  022%=      5-min Rain = 0
KPD4 081735Z 25018KT 22/M00 A2981 RMK A01 T02231003  RH  022%=      5-min Rain = 0
KPD4 081736Z 25015KT 22/M00 A2981 RMK A01 T02221001  RH  023%=      5-min Rain = 0
KPD4 081737Z 24015G23KT 23/00 A2981 RMK A01 T02260004  RH  023%=      5-min Rain = 0
KPD4 081738Z 25022G27KT 23/M00 A2981 RMK A01 T02301002  RH  021%=      5-min Rain = 0
KPD4 081739Z 24019KT 23/M00 A2981 RMK A01 T02271004  RH  022%=      5-min Rain = 0
KPD4 081740Z 24020KT 23/M00 A2981 RMK A01 T02291003  RH  021%=      5-min Rain = 0
KPD4 081741Z 23020KT 23/M00 A2981 RMK A01 T02281003  RH  021%=      5-min Rain = 0
KPD4 081742Z 22017KT 23/M00 A2981 RMK A01 T02291004  RH  021%=      5-min Rain = 0
KPD4 081743Z 23019G26KT 23/M01 A2981 RMK A01 T02281006  RH  021%=      5-min Rain = 0
KPD4 081744Z 24022KT 23/M01 A2981 RMK A01 T02261005  RH  021%=      5-min Rain = 0
KPD4 081745Z 25018G23KT 23/M00 A2981 RMK A01 T02271004  RH  022%=      5-min Rain = 0
KPD4 081746Z 25021KT 23/M00 A2981 RMK A01 T02321003  RH  021%=      5-min Rain = 0
KPD4 081747Z 25021G26KT 23/M00 A2981 RMK A01 T02291003  RH  021%=      5-min Rain = 0
KPD4 081748Z 25022KT 23/M01 A2981 RMK A01 T02281006  RH  021%=      5-min Rain = 0
KPD4 081749Z 25019G24KT 22/M01 A2981 RMK A01 T02241007  RH  021%=      5-min Rain = 0
KPD4 081750Z 25021KT 23/M01 A2981 RMK A01 T02251005  RH  022%=      5-min Rain = 0
KPD4 081751Z 25020KT 23/M01 A2981 RMK A01 T02261008  RH  021%=      5-min Rain = 0
KPD4 081752Z 24017G22KT 23/M01 A2981 RMK A01 T02251010  RH  021%=      5-min Rain = 0
KPD4 081753Z 25019KT 22/M01 A298 RMK A01 T02231009  RH  021%=      5-min Rain = 0
KPD4 081754Z 25015KT 22/M01 A298 RMK A01 T02221005  RH  022%=      5-min Rain = 0
KPD4 081755Z 23017KT 23/00 A298 RMK A01 T02290004  RH  022%=      5-min Rain = 0
KPD4 081756Z 24020KT 24/00 A298 RMK A01 T02350002  RH  021%=      5-min Rain = 0
KPD4 081757Z 25022KT 23/M00 A298 RMK A01 T02321004  RH  021%=      5-min Rain = 0
KPD4 081758Z 24018KT 23/M01 A298 RMK A01 T02281006  RH  021%=      5-min Rain = 0
KPD4 081759Z 24017KT 23/M01 A298 RMK A01 T02271006  RH  021%=      5-min Rain = 0
KPD4 081800Z 25019G26KT 23/M01 A298 RMK A01 T02271005  RH  021%=      5-min Rain = 0
KPD4 081801Z 25022KT 23/M01 A298 RMK A01 T02261010  RH  021%=      5-min Rain = 0
KPD4 081802Z 25020KT 22/M01 A298 RMK A01 T02231009  RH  021%=      5-min Rain = 0
KPD4 081803Z 25018G25KT 22/M01 A298 RMK A01 T02231009  RH  021%=      5-min Rain = 0
KPD4 081804Z 24020G25KT 23/M01 A298 RMK A01 T02261006  RH  021%=      5-min Rain = 0
KPD4 081805Z 25018KT 23/M01 A298 RMK A01 T02281005  RH  021%=      5-min Rain = 0
KPD4 081806Z 24020KT 23/M01 A298 RMK A01 T02281009  RH  021%=      5-min Rain = 0
KPD4 081807Z 24019KT 23/M01 A298 RMK A01 T02261009  RH  021%=      5-min Rain = 0
KPD4 081808Z 24022G28KT 23/M01 A298 RMK A01 T02251007  RH  021%=      5-min Rain = 0
KPD4 081809Z 23024KT 22/M01 A2979 RMK A01 T02241007  RH  021%=      5-min Rain = 0
KPD4 081810Z 23021KT 23/M01 A298 RMK A01 T02251008  RH  021%=      5-min Rain = 0
KPD4 081811Z 25020KT 23/M01 A298 RMK A01 T02251008  RH  021%=      5-min Rain = 0
KPD4 081812Z 26018KT 23/M01 A2979 RMK A01 T02261010  RH  021%=      5-min Rain = 0
KPD4 081813Z 25017KT 23/M01 A298 RMK A01 T02261009  RH  021%=      5-min Rain = 0
KPD4 081814Z 25016KT 23/M00 A2979 RMK A01 T02271004  RH  022%=      5-min Rain = 0
KPD4 081815Z 25019G24KT 23/M00 A2979 RMK A01 T02311001  RH  021%=      5-min Rain = 0
KPD4 081816Z 25015G20KT 23/M00 A2979 RMK A01 T02311003  RH  021%=      5-min Rain = 0
KPD4 081817Z 23017KT 23/M00 A2979 RMK A01 T02321003  RH  021%=      5-min Rain = 0
KPD4 081818Z 24019G27KT 23/M00 A2979 RMK A01 T02321003  RH  021%=      5-min Rain = 0
KPD4 081819Z 24024KT 24/M00 A2979 RMK A01 T02361003  RH  021%=      5-min Rain = 0
KPD4 081820Z 23019KT 24/M01 A2979 RMK A01 T02351006  RH  020%=      5-min Rain = 0
KPD4 081821Z 23017KT 23/M01 A2979 RMK A01 T02341007  RH  020%=      5-min Rain = 0
KPD4 081822Z 23017KT 23/M01 A2979 RMK A01 T02341008  RH  020%=      5-min Rain = 0
KPD4 081823Z 23017KT 23/M01 A2979 RMK A01 T02321009  RH  020%=      5-min Rain = 0
KPD4 081824Z 23016KT 23/M01 A2979 RMK A01 T02311007  RH  021%=      5-min Rain = 0
KPD4 081825Z 24018G26KT 23/M00 A2979 RMK A01 T02321002  RH  021%=      5-min Rain = 0
KPD4 081826Z 24021KT 24/M00 A2979 RMK A01 T02351004  RH  020%=      5-min Rain = 0
KPD4 081827Z 23020KT 23/M00 A2978 RMK A01 T02331004  RH  021%=      5-min Rain = 0
KPD4 081828Z 25019KT 23/M01 A2978 RMK A01 T02321005  RH  021%=      5-min Rain = 0
KPD4 081829Z 25020KT 23/M01 A2978 RMK A01 T02321008  RH  020%=      5-min Rain = 0
KPD4 081830Z 25020KT 23/M01 A2978 RMK A01 T02301010  RH  020%=      5-min Rain = 0
KPD4 081831Z 24016KT 23/M01 A2978 RMK A01 T02301010  RH  020%=      5-min Rain = 0
KPD4 081832Z 25016KT 23/M01 A2978 RMK A01 T02321007  RH  020%=      5-min Rain = 0
KPD4 081833Z 24017KT 23/M01 A2978 RMK A01 T02321011  RH  020%=      5-min Rain = 0
KPD4 081834Z 25021KT 23/M00 A2978 RMK A01 T02341004  RH  021%=      5-min Rain = 0
KPD4 081835Z 24022KT 24/M01 A2978 RMK A01 T02351009  RH  020%=      5-min Rain = 0
KPD4 081836Z 24019KT 23/M01 A2978 RMK A01 T02331011  RH  020%=      5-min Rain = 0
KPD4 081837Z 24018KT 23/M01 A2978 RMK A01 T02321012  RH  020%=      5-min Rain = 0
KPD4 081838Z 23017KT 23/M02 A2978 RMK A01 T02321015  RH  019%=      5-min Rain = 0
KPD4 081839Z 24022KT 23/M01 A2978 RMK A01 T02301013  RH  020%=      5-min Rain = 0
KPD4 081840Z 24018KT 23/M01 A2978 RMK A01 T02311013  RH  020%=      5-min Rain = 0
KPD4 081841Z 22018KT 23/M01 A2978 RMK A01 T02331008  RH  020%=      5-min Rain = 0
KPD4 081842Z 23017KT 24/M01 A2978 RMK A01 T02351009  RH  020%=      5-min Rain = 0
KPD4 081843Z 25015KT 24/M01 A2978 RMK A01 T02351007  RH  020%=      5-min Rain = 0
KPD4 081844Z 23018G26KT 24/M01 A2977 RMK A01 T02351007  RH  020%=      5-min Rain = 0
KPD4 081845Z 23020KT 24/M01 A2977 RMK A01 T02371012  RH  019%=      5-min Rain = 0
KPD4 081846Z 22017G22KT 23/M02 A2977 RMK A01 T02331016  RH  019%=      5-min Rain = 0
KPD4 081847Z 24018KT 23/M01 A2977 RMK A01 T02331012  RH  020%=      5-min Rain = 0
KPD4 081848Z 23021KT 24/M01 A2977 RMK A01 T02371009  RH  020%=      5-min Rain = 0
KPD4 081849Z 24020KT 24/M01 A2977 RMK A01 T02371012  RH  019%=      5-min Rain = 0
KPD4 081850Z 22017KT 24/M01 A2977 RMK A01 T02371010  RH  019%=      5-min Rain = 0
KPD4 081851Z 22016KT 24/M01 A2977 RMK A01 T02371012  RH  019%=      5-min Rain = 0
KPD4 081852Z 23017G23KT 24/M01 A2976 RMK A01 T02391009  RH  019%=      5-min Rain = 0
KPD4 081853Z 24021KT 24/M01 A2976 RMK A01 T02421009  RH  019%=      5-min Rain = 0
KPD4 081854Z 24019KT 24/M01 A2977 RMK A01 T02421012  RH  018%=      5-min Rain = 0
KPD4 081855Z 24015KT 24/M02 A2977 RMK A01 T02411016  RH  018%=      5-min Rain = 0
KPD4 081856Z 24018KT 24/M02 A2977 RMK A01 T02421015  RH  018%=      5-min Rain = 0
KPD4 081857Z 25014G19KT 24/M02 A2977 RMK A01 T02381016  RH  018%=      5-min Rain = 0
KPD4 081858Z 25017KT 24/M01 A2977 RMK A01 T02391013  RH  019%=      5-min Rain = 0
KPD4 081859Z 25019KT 24/M01 A2977 RMK A01 T02411011  RH  019%=      5-min Rain = 0
KPD4 081900Z 23016KT 24/M01 A2977 RMK A01 T02421014  RH  018%=      5-min Rain = 0
KPD4 081901Z 23013KT 24/M02 A2976 RMK A01 T02431019  RH  018%=      5-min Rain = 0
KPD4 081902Z 25015G20KT 24/M02 A2976 RMK A01 T02411018  RH  018%=      5-min Rain = 0
KPD4 081903Z 25020KT 24/M02 A2976 RMK A01 T02391015  RH  018%=      5-min Rain = 0
KPD4 081904Z 25014G19KT 24/M02 A2976 RMK A01 T02391017  RH  018%=      5-min Rain = 0
KPD4 081905Z 24015G21KT 24/M01 A2976 RMK A01 T02421010  RH  019%=      5-min Rain = 0
KPD4 081906Z 24018G24KT 24/M01 A2976 RMK A01 T02421014  RH  018%=      5-min Rain = 0
KPD4 081907Z 25015G21KT 24/M02 A2976 RMK A01 T02401015  RH  018%=      5-min Rain = 0
KPD4 081908Z 25015G21KT 24/M01 A2976 RMK A01 T02421012  RH  019%=      5-min Rain = 0
KPD4 081909Z 24012KT 24/M01 A2976 RMK A01 T02411010  RH  019%=      5-min Rain = 0
KPD4 081910Z 24016KT 25/M01 A2976 RMK A01 T02451012  RH  018%=      5-min Rain = 0
KPD4 081911Z 23012KT 24/M02 A2976 RMK A01 T02441019  RH  017%=      5-min Rain = 0
KPD4 081912Z 24017G23KT 24/M02 A2976 RMK A01 T02421018  RH  018%=      5-min Rain = 0
KPD4 081913Z 25019KT 24/M02 A2976 RMK A01 T02441017  RH  018%=      5-min Rain = 0
KPD4 081914Z 25019KT 24/M02 A2976 RMK A01 T02421020  RH  018%=      5-min Rain = 0
KPD4 081915Z 24018KT 24/M02 A2976 RMK A01 T02411023  RH  017%=      5-min Rain = 0
KPD4 081916Z 24018KT 24/M02 A2976 RMK A01 T02391023  RH  017%=      5-min Rain = 0
KPD4 081917Z 25016KT 24/M02 A2976 RMK A01 T02391024  RH  017%=      5-min Rain = 0
KPD4 081918Z 24012KT 24/M02 A2976 RMK A01 T02381024  RH  017%=      5-min Rain = 0
KPD4 081919Z 24014KT 24/M02 A2975 RMK A01 T02391022  RH  018%=      5-min Rain = 0
KPD4 081920Z 23014KT 24/M02 A2975 RMK A01 T02431021  RH  017%=      5-min Rain = 0
KPD4 081921Z 24016KT 25/M03 A2975 RMK A01 T02461028  RH  016%=      5-min Rain = 0
KPD4 081922Z 24014G19KT 25/M02 A2975 RMK A01 T02451024  RH  017%=      5-min Rain = 0
KPD4 081923Z 23018G23KT 24/M02 A2975 RMK A01 T02441019  RH  017%=      5-min Rain = 0
KPD4 081924Z 23016G22KT 25/M02 A2975 RMK A01 T02471022  RH  017%=      5-min Rain = 0
KPD4 081925Z 24015KT 25/M02 A2975 RMK A01 T02471019  RH  017%=      5-min Rain = 0
KPD4 081926Z 25017KT 25/M02 A2975 RMK A01 T02501023  RH  016%=      5-min Rain = 0
KPD4 081927Z 26016G21KT 25/M03 A2975 RMK A01 T02491027  RH  016%=      5-min Rain = 0
KPD4 081928Z 25012KT 25/M03 A2975 RMK A01 T02451029  RH  016%=      5-min Rain = 0
KPD4 081929Z 24013KT 24/M03 A2975 RMK A01 T02421026  RH  017%=      5-min Rain = 0
KPD4 081930Z 25012KT 24/M02 A2975 RMK A01 T02441024  RH  017%=      5-min Rain = 0
KPD4 081931Z 22013KT 25/M02 A2975 RMK A01 T02451024  RH  017%=      5-min Rain = 0
KPD4 081932Z 22014G19KT 25/M03 A2975 RMK A01 T02461028  RH  016%=      5-min Rain = 0
KPD4 081933Z 24014G20KT 25/M03 A2975 RMK A01 T02451025  RH  017%=      5-min Rain = 0
KPD4 081934Z 25015G20KT 25/M03 A2975 RMK A01 T02481031  RH  015%=      5-min Rain = 0
KPD4 081935Z 25012KT 25/M03 A2975 RMK A01 T02491028  RH  016%=      5-min Rain = 0
KPD4 081936Z 25013KT 25/M03 A2974 RMK A01 T02481031  RH  016%=      5-min Rain = 0
KPD4 081937Z 25014KT 25/M02 A2974 RMK A01 T02481022  RH  017%=      5-min Rain = 0
KPD4 081938Z 22015KT 25/M02 A2974 RMK A01 T02521023  RH  016%=      5-min Rain = 0
KPD4 081939Z 22012KT 25/M03 A2974 RMK A01 T02511032  RH  015%=      5-min Rain = 0
KPD4 081940Z 23015KT 25/M03 A2974 RMK A01 T02481028  RH  016%=      5-min Rain = 0
KPD4 081941Z 22015G20KT 25/M03 A2974 RMK A01 T02471030  RH  016%=      5-min Rain = 0
KPD4 081942Z 23017KT 25/M03 A2974 RMK A01 T02481026  RH  016%=      5-min Rain = 0
KPD4 081943Z 23017KT 25/M03 A2974 RMK A01 T02501025  RH  016%=      5-min Rain = 0
KPD4 081944Z 22015KT 25/M03 A2974 RMK A01 T02461028  RH  016%=      5-min Rain = 0
KPD4 081945Z 24016G22KT 25/M02 A2973 RMK A01 T02461021  RH  017%=      5-min Rain = 0
KPD4 081946Z 24012KT 25/M03 A2973 RMK A01 T02511025  RH  016%=      5-min Rain = 0
KPD4 081947Z 22014KT 25/M03 A2973 RMK A01 T02481027  RH  016%=      5-min Rain = 0
KPD4 081948Z 23015KT 25/M03 A2973 RMK A01 T02481026  RH  016%=      5-min Rain = 0
KPD4 081949Z 23015KT 25/M03 A2973 RMK A01 T02511025  RH  016%=      5-min Rain = 0
KPD4 081950Z 23015KT 26/M02 A2973 RMK A01 T02551019  RH  016%=      5-min Rain = 0
KPD4 081951Z 24013KT 26/M02 A2973 RMK A01 T02591020  RH  016%=      5-min Rain = 0
KPD4 081952Z 24012KT 26/M02 A2973 RMK A01 T02601019  RH  016%=      5-min Rain = 0
KPD4 081953Z 26020KT 26/M02 A2973 RMK A01 T02601021  RH  016%=      5-min Rain = 0
KPD4 081954Z 26017KT 26/M03 A2973 RMK A01 T02551029  RH  015%=      5-min Rain = 0
KPD4 081955Z 27013KT 25/M03 A2973 RMK A01 T02481027  RH  016%=      5-min Rain = 0
KPD4 081956Z 27011KT 25/M03 A2973 RMK A01 T02471025  RH  016%=      5-min Rain = 0
KPD4 081957Z 25015G21KT 25/M02 A2973 RMK A01 T02491023  RH  016%=      5-min Rain = 0
KPD4 081958Z 25017KT 25/M02 A2973 RMK A01 T02521023  RH  016%=      5-min Rain = 0
KPD4 081959Z 24018G23KT 26/M02 A2973 RMK A01 T02561023  RH  016%=      5-min Rain = 0
KPD4 082000Z 25016KT 26/M03 A2973 RMK A01 T02561028  RH  015%=      5-min Rain = 0
KPD4 082001Z 24013KT 25/M03 A2973 RMK A01 T02541028  RH  015%=      5-min Rain = 0
KPD4 082002Z 23014KT 25/M03 A2973 RMK A01 T02531029  RH  015%=      5-min Rain = 0
KPD4 082003Z 22011KT 25/M03 A2973 RMK A01 T02531032  RH  015%=      5-min Rain = 0
KPD4 082004Z 23009KT 25/M03 A2973 RMK A01 T02501033  RH  015%=      5-min Rain = 0
KPD4 082005Z 22012KT 25/M03 A2972 RMK A01 T02511033  RH  015%=      5-min Rain = 0
KPD4 082006Z 22013KT 25/M03 A2972 RMK A01 T02511032  RH  015%=      5-min Rain = 0
KPD4 082007Z 24014KT 26/M03 A2972 RMK A01 T02571030  RH  015%=      5-min Rain = 0
KPD4 082008Z 21015KT 26/M04 A2972 RMK A01 T02561039  RH  014%=      5-min Rain = 0
KPD4 082009Z 22011KT 25/M04 A2972 RMK A01 T02541039  RH  014%=      5-min Rain = 0
KPD4 082010Z 24011KT 26/M03 A2972 RMK A01 T02561031  RH  015%=      5-min Rain = 0
KPD4 082011Z 24014G19KT 25/M03 A2972 RMK A01 T02541030  RH  015%=      5-min Rain = 0
KPD4 082012Z 24012KT 26/M03 A2972 RMK A01 T02551028  RH  015%=      5-min Rain = 0
KPD4 082013Z 24012KT 26/M03 A2972 RMK A01 T02571027  RH  015%=      5-min Rain = 0
KPD4 082014Z 23010KT 26/M03 A2972 RMK A01 T02581029  RH  015%=      5-min Rain = 0
KPD4 082015Z 23010KT 26/M03 A2972 RMK A01 T02571028  RH  015%=      5-min Rain = 0
KPD4 082016Z 24014KT 26/M03 A2972 RMK A01 T02571032  RH  015%=      5-min Rain = 0
KPD4 082017Z 23014KT 26/M03 A2972 RMK A01 T02561031  RH  015%=      5-min Rain = 0
KPD4 082018Z 23014KT 26/M03 A2972 RMK A01 T02581034  RH  014%=      5-min Rain = 0
KPD4 082019Z 24012KT 26/M03 A2972 RMK A01 T02561034  RH  015%=      5-min Rain = 0
KPD4 082020Z 24018G23KT 26/M03 A2972 RMK A01 T02571032  RH  015%=      5-min Rain = 0
KPD4 082021Z 24015G21KT 26/M04 A2972 RMK A01 T02591037  RH  014%=      5-min Rain = 0
KPD4 082022Z 25012KT 25/M04 A2972 RMK A01 T02531041  RH  014%=      5-min Rain = 0
KPD4 082023Z 25013KT 25/M04 A2972 RMK A01 T02531036  RH  015%=      5-min Rain = 0
KPD4 082024Z 26015KT 26/M04 A2972 RMK A01 T02551036  RH  014%=      5-min Rain = 0
KPD4 082025Z 26015G20KT 25/M04 A2972 RMK A01 T02541038  RH  014%=      5-min Rain = 0
KPD4 082026Z 24012KT 25/M04 A2972 RMK A01 T02511039  RH  014%=      5-min Rain = 0
KPD4 082027Z 24011KT 25/M04 A2972 RMK A01 T02511039  RH  014%=      5-min Rain = 0
KPD4 082028Z 24013KT 25/M03 A2971 RMK A01 T02511034  RH  015%=      5-min Rain = 0
KPD4 082029Z 24017KT 26/M03 A2971 RMK A01 T02561034  RH  015%=      5-min Rain = 0
KPD4 082030Z 24018KT 26/M03 A2971 RMK A01 T02551031  RH  015%=      5-min Rain = 0
KPD4 082031Z 23020KT 26/M03 A2971 RMK A01 T02591032  RH  014%=      5-min Rain = 0
KPD4 082032Z 25021KT 26/M04 A2971 RMK A01 T02591036  RH  014%=      5-min Rain = 0
KPD4 082033Z 25014KT 25/M04 A2971 RMK A01 T02541040  RH  014%=      5-min Rain = 0
KPD4 082034Z 24013KT 25/M04 A2971 RMK A01 T02521037  RH  015%=      5-min Rain = 0
KPD4 082035Z 22013KT 26/M03 A2971 RMK A01 T02571028  RH  015%=      5-min Rain = 0
KPD4 082036Z 25016KT 26/M03 A2971 RMK A01 T02641028  RH  014%=      5-min Rain = 0
KPD4 082037Z 24019KT 26/M04 A2971 RMK A01 T02611035  RH  014%=      5-min Rain = 0
KPD4 082038Z 24018KT 26/M04 A2971 RMK A01 T02561040  RH  014%=      5-min Rain = 0
KPD4 082039Z 24016G21KT 25/M04 A2971 RMK A01 T02511040  RH  014%=      5-min Rain = 0
KPD4 082040Z 23015KT 25/M04 A2971 RMK A01 T02511035  RH  015%=      5-min Rain = 0
KPD4 082041Z 23015KT 26/M03 A2971 RMK A01 T02581029  RH  015%=      5-min Rain = 0
KPD4 082042Z 23013G18KT 26/M03 A2971 RMK A01 T02621031  RH  014%=      5-min Rain = 0
KPD4 082043Z 24010KT 26/M03 A2971 RMK A01 T02621032  RH  014%=      5-min Rain = 0
KPD4 082044Z 25007KT 26/M04 A2971 RMK A01 T02591038  RH  014%=      5-min Rain = 0
KPD4 082045Z 23008KT 26/M04 A2971 RMK A01 T02551036  RH  014%=      5-min Rain = 0
KPD4 082046Z 26012KT 26/M03 A2971 RMK A01 T02551034  RH  015%=      5-min Rain = 0
KPD4 082047Z 27015G20KT 25/M04 A297 RMK A01 T02521039  RH  014%=      5-min Rain = 0
KPD4 082048Z 24013KT 25/M03 A2971 RMK A01 T02501034  RH  015%=      5-min Rain = 0
KPD4 082049Z 23014KT 25/M04 A297 RMK A01 T02541036  RH  014%=      5-min Rain = 0
KPD4 082050Z 23010KT 25/M04 A297 RMK A01 T02521039  RH  014%=      5-min Rain = 0
KPD4 082051Z 24012KT 25/M04 A297 RMK A01 T02521037  RH  015%=      5-min Rain = 0
KPD4 082052Z 25017KT 26/M04 A297 RMK A01 T02551036  RH  014%=      5-min Rain = 0
KPD4 082053Z 26014KT 26/M04 A297 RMK A01 T02551035  RH  015%=      5-min Rain = 0
KPD4 082054Z 26015G21KT 26/M03 A297 RMK A01 T02581027  RH  015%=      5-min Rain = 0
KPD4 082055Z 26018KT 26/M03 A297 RMK A01 T02621031  RH  014%=      5-min Rain = 0
KPD4 082056Z 26016KT 26/M03 A297 RMK A01 T02601034  RH  014%=      5-min Rain = 0
KPD4 082057Z 25013KT 26/M03 A297 RMK A01 T02611028  RH  015%=      5-min Rain = 0
KPD4 082058Z 26016KT 26/M03 A297 RMK A01 T02641028  RH  014%=      5-min Rain = 0
KPD4 082059Z 26014KT 26/M03 A297 RMK A01 T02641032  RH  014%=      5-min Rain = 0
KPD4 082100Z 26013G18KT 26/M03 A297 RMK A01 T02611033  RH  014%=      5-min Rain = 0
KPD4 082101Z 24015KT 26/M03 A297 RMK A01 T02601033  RH  014%=      5-min Rain = 0
KPD4 082102Z 26016KT 26/M03 A297 RMK A01 T02601030  RH  015%=      5-min Rain = 0
KPD4 082103Z 27017KT 26/M03 A297 RMK A01 T02621031  RH  014%=      5-min Rain = 0
KPD4 082104Z 26018KT 26/M04 A297 RMK A01 T02591035  RH  014%=      5-min Rain = 0
KPD4 082105Z 25017KT 26/M04 A297 RMK A01 T02581035  RH  014%=      5-min Rain = 0
KPD4 082106Z 26012KT 26/M04 A297 RMK A01 T02551039  RH  014%=      5-min Rain = 0
KPD4 082107Z 25019KT 26/M03 A297 RMK A01 T02571031  RH  015%=      5-min Rain = 0
KPD4 082108Z 25015KT 26/M04 A297 RMK A01 T02581038  RH  014%=      5-min Rain = 0
KPD4 082109Z 25015KT 26/M04 A297 RMK A01 T02551037  RH  014%=      5-min Rain = 0
KPD4 082110Z 25013KT 25/M04 A2969 RMK A01 T02541035  RH  015%=      5-min Rain = 0
KPD4 082111Z 25015KT 26/M03 A2969 RMK A01 T02581027  RH  015%=      5-min Rain = 0
KPD4 082112Z 24019KT 26/M03 A2969 RMK A01 T02621034  RH  014%=      5-min Rain = 0
KPD4 082113Z 25018G25KT 26/M04 A2969 RMK A01 T02621035  RH  014%=      5-min Rain = 0
KPD4 082114Z 25015KT 26/M04 A2969 RMK A01 T02571041  RH  014%=      5-min Rain = 0
KPD4 082115Z 25014KT 26/M04 A2969 RMK A01 T02571039  RH  014%=      5-min Rain = 0
KPD4 082116Z 24018KT 26/M04 A2969 RMK A01 T02571040  RH  014%=      5-min Rain = 0
KPD4 082117Z 23016KT 26/M04 A2969 RMK A01 T02561041  RH  014%=      5-min Rain = 0
KPD4 082118Z 22015KT 26/M04 A2969 RMK A01 T02571038  RH  014%=      5-min Rain = 0
KPD4 082119Z 24017G22KT 26/M04 A2969 RMK A01 T02601037  RH  014%=      5-min Rain = 0
KPD4 082120Z 25017KT 26/M04 A2969 RMK A01 T02601036  RH  014%=      5-min Rain = 0
KPD4 082121Z 23016KT 26/M03 A2969 RMK A01 T02611034  RH  014%=      5-min Rain = 0
KPD4 082122Z 23017KT 26/M04 A2969 RMK A01 T02611036  RH  014%=      5-min Rain = 0
KPD4 082123Z 25016G23KT 26/M03 A2969 RMK A01 T02611032  RH  014%=      5-min Rain = 0
KPD4 082124Z 25019KT 26/M04 A2969 RMK A01 T02611035  RH  014%=      5-min Rain = 0
KPD4 082125Z 26017KT 26/M04 A2969 RMK A01 T02571037  RH  014%=      5-min Rain = 0
KPD4 082126Z 26013KT 26/M04 A2969 RMK A01 T02581036  RH  014%=      5-min Rain = 0
KPD4 082127Z 26013KT 26/M03 A2969 RMK A01 T02591032  RH  014%=      5-min Rain = 0
KPD4 082128Z 25017KT 26/M04 A2969 RMK A01 T02601036  RH  014%=      5-min Rain = 0
KPD4 082129Z 25017KT 26/M04 A2969 RMK A01 T02591041  RH  014%=      5-min Rain = 0
KPD4 082130Z 25017KT 26/M04 A2969 RMK A01 T02591039  RH  014%=      5-min Rain = 0
KPD4 082131Z 25019KT 26/M04 A2969 RMK A01 T02591040  RH  014%=      5-min Rain = 0
KPD4 082132Z 25013KT 26/M04 A2969 RMK A01 T02561043  RH  014%=      5-min Rain = 0
KPD4 082133Z 26012KT 26/M04 A2969 RMK A01 T02561035  RH  014%=      5-min Rain = 0
KPD4 082134Z 26017KT 26/M03 A2969 RMK A01 T02621032  RH  014%=      5-min Rain = 0
KPD4 082135Z 25019G24KT 26/M04 A2969 RMK A01 T02601041  RH  013%=      5-min Rain = 0
KPD4 082136Z 25018KT 26/M04 A2969 RMK A01 T02571040  RH  014%=      5-min Rain = 0
KPD4 082137Z 24017KT 26/M04 A2969 RMK A01 T02581040  RH  014%=      5-min Rain = 0
KPD4 082138Z 24014KT 26/M04 A2969 RMK A01 T02601039  RH  014%=      5-min Rain = 0
KPD4 082139Z 24012KT 26/M04 A2969 RMK A01 T02611038  RH  014%=      5-min Rain = 0
KPD4 082140Z 26011KT 26/M04 A2969 RMK A01 T02621040  RH  013%=      5-min Rain = 0
KPD4 082141Z 23014KT 26/M04 A2969 RMK A01 T02611037  RH  014%=      5-min Rain = 0
KPD4 082142Z 23017KT 26/M03 A2968 RMK A01 T02641033  RH  014%=      5-min Rain = 0
KPD4 082143Z 23019KT 27/M04 A2968 RMK A01 T02651038  RH  013%=      5-min Rain = 0
KPD4 082144Z 23011KT 26/M04 A2969 RMK A01 T02601041  RH  013%=      5-min Rain = 0
KPD4 082145Z 24013G18KT 26/M03 A2968 RMK A01 T02601034  RH  014%=      5-min Rain = 0
KPD4 082146Z 24016KT 26/M04 A2968 RMK A01 T02631035  RH  014%=      5-min Rain = 0
KPD4 082147Z 24013KT 26/M04 A2968 RMK A01 T02611035  RH  014%=      5-min Rain = 0
KPD4 082148Z 26010KT 26/M03 A2968 RMK A01 T02631028  RH  014%=      5-min Rain = 0
KPD4 082149Z 26012KT 27/M03 A2968 RMK A01 T02691026  RH  014%=      5-min Rain = 0
KPD4 082150Z 24012KT 27/M03 A2968 RMK A01 T02681032  RH  014%=      5-min Rain = 0
KPD4 082151Z 23011KT 27/M04 A2968 RMK A01 T02661036  RH  013%=      5-min Rain = 0
KPD4 082152Z 25010KT 26/M03 A2968 RMK A01 T02641034  RH  014%=      5-min Rain = 0
KPD4 082153Z 26010KT 26/M04 A2968 RMK A01 T02641035  RH  014%=      5-min Rain = 0
KPD4 082154Z 25009KT 26/M03 A2968 RMK A01 T02631034  RH  014%=      5-min Rain = 0
KPD4 082155Z 24013KT 26/M03 A2968 RMK A01 T02641033  RH  014%=      5-min Rain = 0
KPD4 082156Z 24012KT 26/M04 A2968 RMK A01 T02621039  RH  013%=      5-min Rain = 0
KPD4 082157Z 24016KT 26/M04 A2968 RMK A01 T02601035  RH  014%=      5-min Rain = 0
KPD4 082158Z 24014KT 26/M03 A2968 RMK A01 T02621033  RH  014%=      5-min Rain = 0
KPD4 082159Z 25014KT 26/M03 A2968 RMK A01 T02641033  RH  014%=      5-min Rain = 0
KPD4 082200Z 25013KT 26/M04 A2968 RMK A01 T02641035  RH  014%=      5-min Rain = 0
KPD4 082201Z 25010KT 26/M04 A2968 RMK A01 T02631035  RH  014%=      5-min Rain = 0
KPD4 082202Z 24014KT 26/M04 A2968 RMK A01 T02641037  RH  014%=      5-min Rain = 0
KPD4 082203Z 25015KT 26/M04 A2968 RMK A01 T02631039  RH  013%=      5-min Rain = 0
KPD4 082204Z 25014KT 26/M04 A2968 RMK A01 T02591042  RH  013%=      5-min Rain = 0
KPD4 082205Z 23014KT 26/M04 A2968 RMK A01 T02581038  RH  014%=      5-min Rain = 0
KPD4 082206Z 24010KT 26/M04 A2968 RMK A01 T02591039  RH  014%=      5-min Rain = 0
KPD4 082207Z 25007KT 26/M04 A2968 RMK A01 T02571041  RH  014%=      5-min Rain = 0
KPD4 082208Z 24017KT 26/M03 A2968 RMK A01 T02591032  RH  014%=      5-min Rain = 0
KPD4 082209Z 25016KT 26/M04 A2968 RMK A01 T02621035  RH  014%=      5-min Rain = 0
KPD4 082210Z 23011KT 26/M03 A2968 RMK A01 T02621033  RH  014%=      5-min Rain = 0
KPD4 082211Z 25014KT 27/M03 A2968 RMK A01 T02651032  RH  014%=      5-min Rain = 0
KPD4 082212Z 24011KT 26/M04 A2968 RMK A01 T02621041  RH  013%=      5-min Rain = 0
KPD4 082213Z 23011KT 26/M04 A2968 RMK A01 T02591036  RH  014%=      5-min Rain = 0
KPD4 082214Z 23011KT 26/M04 A2968 RMK A01 T02591039  RH  014%=      5-min Rain = 0
KPD4 082215Z 23012KT 26/M04 A2968 RMK A01 T02571037  RH  014%=      5-min Rain = 0
KPD4 082216Z 23014KT 26/M04 A2967 RMK A01 T02591035  RH  014%=      5-min Rain = 0
KPD4 082217Z 25011KT 26/M04 A2968 RMK A01 T02601037  RH  014%=      5-min Rain = 0
KPD4 082218Z 25009KT 26/M04 A2968 RMK A01 T02591035  RH  014%=      5-min Rain = 0
KPD4 082219Z 24010KT 26/M03 A2967 RMK A01 T02621033  RH  014%=      5-min Rain = 0
KPD4 082220Z 22008KT 26/M04 A2967 RMK A01 T02611037  RH  014%=      5-min Rain = 0
KPD4 082221Z 23011G16KT 26/M03 A2967 RMK A01 T02601034  RH  014%=      5-min Rain = 0
KPD4 082222Z 25015KT 26/M03 A2967 RMK A01 T02641032  RH  014%=      5-min Rain = 0
KPD4 082223Z 25012KT 26/M04 A2967 RMK A01 T02611038  RH  014%=      5-min Rain = 0
KPD4 082224Z 25011KT 26/M04 A2967 RMK A01 T02591037  RH  014%=      5-min Rain = 0
KPD4 082225Z 24011KT 26/M04 A2967 RMK A01 T02591036  RH  014%=      5-min Rain = 0
KPD4 082226Z 24015KT 26/M03 A2967 RMK A01 T02631030  RH  014%=      5-min Rain = 0
KPD4 082227Z 25015KT 26/M04 A2967 RMK A01 T02641038  RH  013%=      5-min Rain = 0
KPD4 082228Z 24015KT 26/M04 A2967 RMK A01 T02611038  RH  014%=      5-min Rain = 0
KPD4 082229Z 23011KT 26/M04 A2967 RMK A01 T02611037  RH  014%=      5-min Rain = 0
KPD4 082230Z 23011KT 26/M03 A2967 RMK A01 T02631033  RH  014%=      5-min Rain = 0
KPD4 082231Z 23008KT 27/M04 A2967 RMK A01 T02651035  RH  014%=      5-min Rain = 0
KPD4 082232Z 24009KT 26/M04 A2967 RMK A01 T02641035  RH  014%=      5-min Rain = 0
KPD4 082233Z 23013KT 27/M03 A2967 RMK A01 T02651032  RH  014%=      5-min Rain = 0
KPD4 082234Z 26011KT 27/M03 A2967 RMK A01 T02671031  RH  014%=      5-min Rain = 0
KPD4 082235Z 27018KT 27/M03 A2967 RMK A01 T02661031  RH  014%=      5-min Rain = 0
KPD4 082236Z 28012G17KT 26/M04 A2967 RMK A01 T02631038  RH  013%=      5-min Rain = 0
KPD4 082237Z 31009KT 26/M04 A2967 RMK A01 T02601039  RH  014%=      5-min Rain = 0
KPD4 082238Z 31008KT 26/M04 A2967 RMK A01 T02551040  RH  014%=      5-min Rain = 0
KPD4 082239Z 27008KT 25/M04 A2967 RMK A01 T02521039  RH  014%=      5-min Rain = 0
KPD4 082240Z 25009KT 25/M04 A2967 RMK A01 T02511037  RH  015%=      5-min Rain = 0
KPD4 082241Z 24011KT 25/M03 A2967 RMK A01 T02531033  RH  015%=      5-min Rain = 0
KPD4 082242Z 24014KT 26/M03 A2967 RMK A01 T02581032  RH  015%=      5-min Rain = 0
KPD4 082243Z 23012KT 26/M03 A2967 RMK A01 T02591034  RH  014%=      5-min Rain = 0
KPD4 082244Z 24012KT 26/M04 A2967 RMK A01 T02601035  RH  014%=      5-min Rain = 0
KPD4 082245Z 23010KT 26/M04 A2967 RMK A01 T02611035  RH  014%=      5-min Rain = 0
KPD4 082246Z 23011KT 26/M03 A2967 RMK A01 T02631032  RH  014%=      5-min Rain = 0
KPD4 082247Z 24011KT 26/M04 A2967 RMK A01 T02641035  RH  014%=      5-min Rain = 0
KPD4 082248Z 23011KT 26/M04 A2967 RMK A01 T02621037  RH  014%=      5-min Rain = 0
KPD4 082249Z 23010KT 26/M03 A2967 RMK A01 T02591034  RH  014%=      5-min Rain = 0
KPD4 082250Z 22009KT 26/M03 A2967 RMK A01 T02581030  RH  015%=      5-min Rain = 0
KPD4 082251Z 22012KT 26/M03 A2967 RMK A01 T02581033  RH  014%=      5-min Rain = 0
KPD4 082252Z 22011KT 26/M03 A2967 RMK A01 T02581033  RH  014%=      5-min Rain = 0
KPD4 082253Z 23012KT 26/M04 A2967 RMK A01 T02591035  RH  014%=      5-min Rain = 0
KPD4 082254Z 22012KT 26/M04 A2967 RMK A01 T02571037  RH  014%=      5-min Rain = 0
KPD4 082255Z 22012KT 25/M04 A2967 RMK A01 T02541037  RH  014%=      5-min Rain = 0
KPD4 082256Z 23011KT 25/M04 A2967 RMK A01 T02511037  RH  015%=      5-min Rain = 0
KPD4 082257Z 24012KT 25/M03 A2967 RMK A01 T02501033  RH  015%=      5-min Rain = 0
KPD4 082258Z 23011KT 25/M03 A2967 RMK A01 T02531032  RH  015%=      5-min Rain = 0
KPD4 082259Z 23014KT 26/M03 A2967 RMK A01 T02551032  RH  015%=      5-min Rain = 0
KPD4 082300Z 24011KT 25/M04 A2967 RMK A01 T02541037  RH  014%=      5-min Rain = 0
KPD4 082301Z 24011KT 25/M04 A2967 RMK A01 T02531036  RH  014%=      5-min Rain = 0
KPD4 082302Z 24011KT 26/M04 A2967 RMK A01 T02551036  RH  014%=      5-min Rain = 0
KPD4 082303Z 23009KT 26/M03 A2967 RMK A01 T02561034  RH  015%=      5-min Rain = 0
KPD4 082304Z 23009KT 26/M03 A2967 RMK A01 T02601028  RH  015%=      5-min Rain = 0
KPD4 082305Z 23009KT 26/M03 A2967 RMK A01 T02621031  RH  014%=      5-min Rain = 0
KPD4 082306Z 23008KT 26/M03 A2967 RMK A01 T02641026  RH  015%=      5-min Rain = 0
KPD4 082307Z 24011KT 27/M03 A2967 RMK A01 T02651028  RH  014%=      5-min Rain = 0
KPD4 082308Z 24016KT 26/M03 A2967 RMK A01 T02631032  RH  014%=      5-min Rain = 0
KPD4 082309Z 24016KT 26/M03 A2966 RMK A01 T02601034  RH  014%=      5-min Rain = 0
KPD4 082310Z 25016KT 26/M04 A2966 RMK A01 T02601035  RH  014%=      5-min Rain = 0
KPD4 082311Z 25013KT 26/M04 A2966 RMK A01 T02591037  RH  014%=      5-min Rain = 0
KPD4 082312Z 24014KT 26/M03 A2966 RMK A01 T02581033  RH  014%=      5-min Rain = 0
KPD4 082313Z 23016KT 26/M03 A2966 RMK A01 T02601033  RH  014%=      5-min Rain = 0
KPD4 082314Z 23016KT 26/M03 A2966 RMK A01 T02601033  RH  014%=      5-min Rain = 0
KPD4 082315Z 24015KT 26/M04 A2966 RMK A01 T02621037  RH  014%=      5-min Rain = 0
KPD4 082316Z 24013KT 26/M04 A2966 RMK A01 T02641036  RH  014%=      5-min Rain = 0
KPD4 082317Z 24013KT 27/M04 A2966 RMK A01 T02661038  RH  013%=      5-min Rain = 0
KPD4 082318Z 23014KT 27/M04 A2966 RMK A01 T02661038  RH  013%=      5-min Rain = 0
KPD4 082319Z 24016KT 27/M04 A2966 RMK A01 T02671039  RH  013%=      5-min Rain = 0
KPD4 082320Z 24014KT 27/M04 A2966 RMK A01 T02651044  RH  013%=      5-min Rain = 0
KPD4 082321Z 26013KT 26/M04 A2966 RMK A01 T02641038  RH  013%=      5-min Rain = 0
KPD4 082322Z 27013KT 27/M04 A2966 RMK A01 T02651042  RH  013%=      5-min Rain = 0
KPD4 082323Z 26014KT 26/M04 A2966 RMK A01 T02631042  RH  013%=      5-min Rain = 0
KPD4 082324Z 26013KT 26/M04 A2966 RMK A01 T02621041  RH  013%=      5-min Rain = 0
KPD4 082325Z 27012KT 26/M04 A2966 RMK A01 T02621040  RH  013%=      5-min Rain = 0
KPD4 082326Z 26015KT 26/M04 A2966 RMK A01 T02611038  RH  014%=      5-min Rain = 0
KPD4 082327Z 26013KT 26/M03 A2966 RMK A01 T02631033  RH  014%=      5-min Rain = 0
KPD4 082328Z 25014KT 26/M04 A2966 RMK A01 T02621038  RH  014%=      5-min Rain = 0
KPD4 082329Z 24013KT 26/M04 A2966 RMK A01 T02611037  RH  014%=      5-min Rain = 0
KPD4 082330Z 25012KT 26/M04 A2967 RMK A01 T02621038  RH  014%=      5-min Rain = 0
KPD4 082331Z 25010KT 26/M04 A2967 RMK A01 T02621037  RH  014%=      5-min Rain = 0
KPD4 082332Z 26010KT 26/M04 A2967 RMK A01 T02611039  RH  014%=      5-min Rain = 0
KPD4 082333Z 26010KT 26/M04 A2967 RMK A01 T02611039  RH  014%=      5-min Rain = 0
KPD4 082334Z 25008KT 26/M04 A2967 RMK A01 T02611038  RH  014%=      5-min Rain = 0
KPD4 082335Z 24010G15KT 26/M03 A2967 RMK A01 T02621033  RH  014%=      5-min Rain = 0
KPD4 082336Z 24014KT 26/M03 A2967 RMK A01 T02631031  RH  014%=      5-min Rain = 0
KPD4 082337Z 23018KT 26/M03 A2966 RMK A01 T02621033  RH  014%=      5-min Rain = 0
KPD4 082338Z 23015KT 26/M04 A2967 RMK A01 T02601036  RH  014%=      5-min Rain = 0
KPD4 082339Z 23015KT 26/M04 A2967 RMK A01 T02591035  RH  014%=      5-min Rain = 0
KPD4 082340Z 23015KT 26/M03 A2966 RMK A01 T02581034  RH  014%=      5-min Rain = 0
KPD4 082341Z 22015KT 26/M03 A2966 RMK A01 T02571033  RH  014%=      5-min Rain = 0
KPD4 082342Z 22012G18KT 26/M03 A2966 RMK A01 T02581033  RH  014%=      5-min Rain = 0
KPD4 082343Z 22014KT 26/M03 A2966 RMK A01 T02581030  RH  015%=      5-min Rain = 0
KPD4 082344Z 24015KT 26/M03 A2966 RMK A01 T02581029  RH  015%=      5-min Rain = 0
KPD4 082345Z 23013KT 26/M03 A2966 RMK A01 T02571028  RH  015%=      5-min Rain = 0
KPD4 082346Z 24015KT 26/M03 A2966 RMK A01 T02571030  RH  015%=      5-min Rain = 0
KPD4 082347Z 25012KT 26/M03 A2967 RMK A01 T02561033  RH  015%=      5-min Rain = 0
KPD4 082348Z 26012KT 26/M03 A2967 RMK A01 T02551034  RH  015%=      5-min Rain = 0
KPD4 082349Z 26013KT 26/M03 A2967 RMK A01 T02551031  RH  015%=      5-min Rain = 0
KPD4 082350Z 25012KT 26/M03 A2966 RMK A01 T02551030  RH  015%=      5-min Rain = 0
KPD4 082351Z 25011KT 26/M03 A2967 RMK A01 T02561029  RH  015%=      5-min Rain = 0
KPD4 082352Z 25013KT 26/M03 A2966 RMK A01 T02561031  RH  015%=      5-min Rain = 0
KPD4 082353Z 25013KT 26/M03 A2966 RMK A01 T02551029  RH  015%=      5-min Rain = 0
KPD4 082354Z 23011KT 26/M03 A2967 RMK A01 T02551026  RH  016%=      5-min Rain = 0
KPD4 082355Z 23011KT 26/M03 A2967 RMK A01 T02551025  RH  016%=      5-min Rain = 0
KPD4 082356Z 23011KT 26/M03 A2967 RMK A01 T02551025  RH  016%=      5-min Rain = 0
KPD4 082357Z 23010KT 25/M02 A2967 RMK A01 T02541024  RH  016%=      5-min Rain = 0
KPD4 082358Z 23012KT 25/M03 A2967 RMK A01 T02541026  RH  016%=      5-min Rain = 0
KPD4 082359Z 24012KT 25/M02 A2967 RMK A01 T02531024  RH  016%=      5-min Rain = 0
KPD4 090000Z 23011KT 25/M03 A2967 RMK A01 T02521025  RH  016%=      5-min Rain = 0
KPD4 090001Z 23009KT 25/M03 A2967 RMK A01 T02511025  RH  016%=      5-min Rain = 0
KPD4 090002Z 23012KT 25/M02 A2967 RMK A01 T02511023  RH  016%=      5-min Rain = 0
KPD4 090003Z 23011KT 25/M03 A2966 RMK A01 T02511033  RH  015%=      5-min Rain = 0
KPD4 090004Z 23010KT 25/M03 A2966 RMK A01 T02501029  RH  016%=      5-min Rain = 0
KPD4 090005Z 23009KT 25/M03 A2966 RMK A01 T02501027  RH  016%=      5-min Rain = 0
KPD4 090006Z 24011KT 25/M03 A2966 RMK A01 T02501027  RH  016%=      5-min Rain = 0
KPD4 090007Z 24010KT 25/M03 A2966 RMK A01 T02491030  RH  016%=      5-min Rain = 0
KPD4 090008Z 23011KT 25/M03 A2966 RMK A01 T02481025  RH  016%=      5-min Rain = 0
KPD4 090009Z 24009KT 25/M02 A2966 RMK A01 T02481024  RH  016%=      5-min Rain = 0
KPD4 090010Z 24009KT 25/M02 A2966 RMK A01 T02471022  RH  017%=      5-min Rain = 0
KPD4 090011Z 24008KT 25/M02 A2966 RMK A01 T02471019  RH  017%=      5-min Rain = 0
KPD4 090012Z 24007KT 25/M02 A2966 RMK A01 T02471018  RH  017%=      5-min Rain = 0
KPD4 090013Z 24008KT 25/M02 A2966 RMK A01 T02471018  RH  017%=      5-min Rain = 0
KPD4 090014Z 24008KT 25/M02 A2966 RMK A01 T02461019  RH  017%=      5-min Rain = 0
KPD4 090015Z 23008KT 25/M02 A2966 RMK A01 T02451018  RH  017%=      5-min Rain = 0
KPD4 090016Z 24008KT 25/M02 A2966 RMK A01 T02451020  RH  017%=      5-min Rain = 0
KPD4 090017Z 24009KT 25/M02 A2966 RMK A01 T02451019  RH  017%=      5-min Rain = 0
KPD4 090018Z 24008KT 24/M02 A2966 RMK A01 T02441017  RH  018%=      5-min Rain = 0
KPD4 090019Z 24007KT 24/M02 A2966 RMK A01 T02441017  RH  018%=      5-min Rain = 0
KPD4 090020Z 24006KT 24/M02 A2966 RMK A01 T02441017  RH  018%=      5-min Rain = 0
KPD4 090021Z 24006KT 24/M02 A2966 RMK A01 T02441016  RH  018%=      5-min Rain = 0
KPD4 090022Z 24005KT 24/M02 A2966 RMK A01 T02431015  RH  018%=      5-min Rain = 0
KPD4 090023Z 25006KT 24/M02 A2966 RMK A01 T02431015  RH  018%=      5-min Rain = 0
KPD4 090024Z 25006KT 24/M01 A2966 RMK A01 T02431014  RH  018%=      5-min Rain = 0
KPD4 090025Z 25005KT 24/M02 A2966 RMK A01 T02401015  RH  018%=      5-min Rain = 0
KPD4 090026Z 25006KT 24/M02 A2966 RMK A01 T02381015  RH  019%=      5-min Rain = 0
KPD4 090027Z 26005KT 24/M02 A2966 RMK A01 T02361016  RH  019%=      5-min Rain = 0
KPD4 090028Z 26005KT 24/M02 A2966 RMK A01 T02351015  RH  019%=      5-min Rain = 0
KPD4 090029Z 26005KT 24/M01 A2966 RMK A01 T02351014  RH  019%=      5-min Rain = 0
KPD4 090030Z 26005KT 24/M01 A2966 RMK A01 T02351014  RH  019%=      5-min Rain = 0
KPD4 090031Z 26005KT 24/M01 A2966 RMK A01 T02351012  RH  019%=      5-min Rain = 0
KPD4 090032Z 26005KT 23/M01 A2966 RMK A01 T02341013  RH  019%=      5-min Rain = 0
KPD4 090033Z 26005KT 23/M01 A2966 RMK A01 T02341014  RH  019%=      5-min Rain = 0
KPD4 090034Z 27004KT 23/M01 A2966 RMK A01 T02341013  RH  019%=      5-min Rain = 0
KPD4 090035Z 27004KT 23/M01 A2966 RMK A01 T02331012  RH  020%=      5-min Rain = 0
KPD4 090036Z 28004KT 23/M01 A2966 RMK A01 T02321012  RH  020%=      5-min Rain = 0
KPD4 090037Z 28004KT 23/M01 A2966 RMK A01 T02321010  RH  020%=      5-min Rain = 0
KPD4 090038Z 28004KT 23/M00 A2966 RMK A01 T02291002  RH  022%=      5-min Rain = 0
KPD4 090039Z 29003KT 23/00 A2966 RMK A01 T02260004  RH  023%=      5-min Rain = 0
KPD4 090040Z 31003KT 22/01 A2966 RMK A01 T02220008  RH  024%=      5-min Rain = 0
KPD4 090041Z 33003KT 22/01 A2966 RMK A01 T02180007  RH  025%=      5-min Rain = 0
KPD4 090042Z 35004KT 22/01 A2966 RMK A01 T02150008  RH  025%=      5-min Rain = 0
KPD4 090043Z 00006KT 21/01 A2966 RMK A01 T02130012  RH  026%=      5-min Rain = 0
KPD4 090044Z 01006KT 21/01 A2966 RMK A01 T02110008  RH  026%=      5-min Rain = 0
KPD4 090045Z 01007KT 21/01 A2966 RMK A01 T02110007  RH  026%=      5-min Rain = 0
KPD4 090046Z 01007KT 21/01 A2966 RMK A01 T02110005  RH  025%=      5-min Rain = 0
KPD4 090047Z 02008KT 21/00 A2966 RMK A01 T02130003  RH  025%=      5-min Rain = 0
KPD4 090048Z 02009KT 21/00 A2966 RMK A01 T02140002  RH  024%=      5-min Rain = 0
KPD4 090049Z 03008KT 21/M00 A2966 RMK A01 T02141004  RH  023%=      5-min Rain = 0
KPD4 090050Z 03008KT 21/M01 A2966 RMK A01 T02141011  RH  022%=      5-min Rain = 0
KPD4 090051Z 03009KT 21/M02 A2966 RMK A01 T02131015  RH  022%=      5-min Rain = 0
KPD4 090052Z 03009KT 21/M03 A2966 RMK A01 T02131026  RH  020%=      5-min Rain = 0
KPD4 090053Z 03009KT 21/M03 A2966 RMK A01 T02131031  RH  019%=      5-min Rain = 0
KPD4 090054Z 03009KT 21/M03 A2966 RMK A01 T02131032  RH  019%=      5-min Rain = 0
KPD4 090055Z 02009KT 21/M04 A2966 RMK A01 T02121035  RH  019%=      5-min Rain = 0
KPD4 090056Z 03009KT 21/M04 A2966 RMK A01 T02121037  RH  018%=      5-min Rain = 0
KPD4 090057Z 03009KT 21/M04 A2966 RMK A01 T02111037  RH  019%=      5-min Rain = 0
KPD4 090058Z 03010KT 21/M04 A2966 RMK A01 T02101038  RH  019%=      5-min Rain = 0
KPD4 090059Z 03009KT 21/M04 A2966 RMK A01 T02091037  RH  019%=      5-min Rain = 0
KPD4 090100Z 03010KT 21/M04 A2966 RMK A01 T02081037  RH  019%=      5-min Rain = 0
KPD4 090101Z 03010KT 21/M04 A2966 RMK A01 T02071039  RH  019%=      5-min Rain = 0
KPD4 090102Z 03011KT 21/M04 A2966 RMK A01 T02071040  RH  019%=      5-min Rain = 0
KPD4 090103Z 03012KT 21/M04 A2966 RMK A01 T02081040  RH  018%=      5-min Rain = 0
KPD4 090104Z 04011KT 21/M04 A2966 RMK A01 T02081039  RH  019%=      5-min Rain = 0
KPD4 090105Z 04011KT 21/M04 A2966 RMK A01 T02071038  RH  019%=      5-min Rain = 0
KPD4 090106Z 04011KT 21/M04 A2966 RMK A01 T02051037  RH  019%=      5-min Rain = 0
KPD4 090107Z 04012KT 20/M04 A2966 RMK A01 T02041037  RH  019%=      5-min Rain = 0
KPD4 090108Z 03012KT 20/M04 A2966 RMK A01 T02041038  RH  019%=      5-min Rain = 0
KPD4 090109Z 04012KT 20/M04 A2966 RMK A01 T02031036  RH  020%=      5-min Rain = 0
KPD4 090110Z 04013KT 20/M04 A2966 RMK A01 T02021038  RH  020%=      5-min Rain = 0
KPD4 090111Z 04013KT 20/M04 A2966 RMK A01 T02031039  RH  019%=      5-min Rain = 0
KPD4 090112Z 04014KT 20/M04 A2966 RMK A01 T02041038  RH  019%=      5-min Rain = 0
KPD4 090113Z 04013KT 20/M04 A2965 RMK A01 T02021038  RH  020%=      5-min Rain = 0
KPD4 090114Z 04014KT 20/M04 A2966 RMK A01 T02011038  RH  020%=      5-min Rain = 0
KPD4 090115Z 04014KT 20/M04 A2965 RMK A01 T02021039  RH  019%=      5-min Rain = 0
KPD4 090116Z 03013KT 20/M04 A2966 RMK A01 T02021040  RH  019%=      5-min Rain = 0
KPD4 090117Z 04013KT 20/M04 A2966 RMK A01 T02031039  RH  019%=      5-min Rain = 0
KPD4 090118Z 03012KT 20/M04 A2966 RMK A01 T02021039  RH  019%=      5-min Rain = 0
KPD4 090119Z 03010KT 20/M04 A2966 RMK A01 T02011038  RH  020%=      5-min Rain = 0
KPD4 090120Z 03009KT 20/M04 A2966 RMK A01 T01981037  RH  020%=      5-min Rain = 0
KPD4 090121Z 03009KT 20/M04 A2966 RMK A01 T01961038  RH  020%=      5-min Rain = 0
KPD4 090122Z 03009KT 20/M04 A2966 RMK A01 T01961038  RH  020%=      5-min Rain = 0
KPD4 090123Z 04010KT 20/M04 A2966 RMK A01 T01961037  RH  020%=      5-min Rain = 0
KPD4 090124Z 04010KT 20/M04 A2966 RMK A01 T01951038  RH  020%=      5-min Rain = 0
KPD4 090125Z 04011KT 20/M04 A2966 RMK A01 T01951038  RH  020%=      5-min Rain = 0
KPD4 090126Z 04010KT 20/M04 A2966 RMK A01 T01951040  RH  020%=      5-min Rain = 0
KPD4 090127Z 05008KT 20/M04 A2966 RMK A01 T01971042  RH  020%=      5-min Rain = 0
KPD4 090128Z 05008KT 20/M04 A2966 RMK A01 T01971040  RH  020%=      5-min Rain = 0
KPD4 090129Z 05008KT 20/M04 A2966 RMK A01 T01961040  RH  020%=      5-min Rain = 0
KPD4 090130Z 06009KT 20/M04 A2966 RMK A01 T01951040  RH  020%=      5-min Rain = 0
KPD4 090131Z 05008KT 20/M04 A2966 RMK A01 T01951040  RH  020%=      5-min Rain = 0
KPD4 090132Z 06008KT 19/M04 A2966 RMK A01 T01941041  RH  020%=      5-min Rain = 0
KPD4 090133Z 06008KT 19/M04 A2966 RMK A01 T01931041  RH  020%=      5-min Rain = 0
KPD4 090134Z 06008KT 19/M04 A2966 RMK A01 T01931041  RH  020%=      5-min Rain = 0
KPD4 090135Z 05008KT 19/M04 A2966 RMK A01 T01921040  RH  020%=      5-min Rain = 0
KPD4 090136Z 07009KT 19/M04 A2966 RMK A01 T01901042  RH  020%=      5-min Rain = 0
KPD4 090137Z 06008KT 19/M05 A2966 RMK A01 T01911046  RH  020%=      5-min Rain = 0
KPD4 090138Z 06006KT 19/M04 A2966 RMK A01 T01941043  RH  020%=      5-min Rain = 0
KPD4 090139Z 06008KT 19/M04 A2966 RMK A01 T01921040  RH  021%=      5-min Rain = 0
KPD4 090140Z 06008KT 19/M04 A2966 RMK A01 T01891040  RH  021%=      5-min Rain = 0
KPD4 090141Z 06008KT 19/M04 A2966 RMK A01 T01881041  RH  021%=      5-min Rain = 0
KPD4 090142Z 06008KT 19/M04 A2966 RMK A01 T01871041  RH  021%=      5-min Rain = 0
KPD4 090143Z 05007KT 19/M04 A2966 RMK A01 T01871043  RH  021%=      5-min Rain = 0
KPD4 090144Z 05006KT 19/M04 A2966 RMK A01 T01871043  RH  021%=      5-min Rain = 0
KPD4 090145Z 05007KT 19/M04 A2966 RMK A01 T01871043  RH  021%=      5-min Rain = 0
KPD4 090146Z 05008KT 19/M04 A2966 RMK A01 T01861043  RH  021%=      5-min Rain = 0
KPD4 090147Z 05009KT 19/M04 A2966 RMK A01 T01851043  RH  021%=      5-min Rain = 0
KPD4 090148Z 05008KT 19/M04 A2966 RMK A01 T01851042  RH  021%=      5-min Rain = 0
KPD4 090149Z 06008KT 18/M04 A2966 RMK A01 T01831043  RH  021%=      5-min Rain = 0
KPD4 090150Z 06008KT 18/M04 A2966 RMK A01 T01831044  RH  021%=      5-min Rain = 0
KPD4 090151Z 06008KT 19/M04 A2966 RMK A01 T01851044  RH  021%=      5-min Rain = 0
KPD4 090152Z 06008KT 19/M04 A2966 RMK A01 T01851043  RH  021%=      5-min Rain = 0
KPD4 090153Z 06007KT 18/M04 A2966 RMK A01 T01841043  RH  021%=      5-min Rain = 0
KPD4 090154Z 06008KT 18/M04 A2966 RMK A01 T01831043  RH  021%=      5-min Rain = 0
KPD4 090155Z 06008KT 18/M04 A2966 RMK A01 T01821043  RH  021%=      5-min Rain = 0
KPD4 090156Z 06008KT 18/M04 A2966 RMK A01 T01811043  RH  022%=      5-min Rain = 0
KPD4 090157Z 06008KT 18/M04 A2966 RMK A01 T01801043  RH  022%=      5-min Rain = 0
KPD4 090158Z 06007KT 18/M04 A2966 RMK A01 T01781043  RH  022%=      5-min Rain = 0
KPD4 090159Z 06007KT 18/M04 A2966 RMK A01 T01781043  RH  022%=      5-min Rain = 0
KPD4 090200Z 06007KT 18/M04 A2966 RMK A01 T01771043  RH  022%=      5-min Rain = 0
KPD4 090201Z 06007KT 18/M04 A2966 RMK A01 T01771042  RH  022%=      5-min Rain = 0
KPD4 090202Z 05007KT 18/M04 A2966 RMK A01 T01751042  RH  022%=      5-min Rain = 0
KPD4 090203Z 06007KT 18/M04 A2966 RMK A01 T01751042  RH  022%=      5-min Rain = 0
KPD4 090204Z 06007KT 18/M04 A2966 RMK A01 T01751042  RH  022%=      5-min Rain = 0
KPD4 090205Z 06007KT 17/M04 A2966 RMK A01 T01741042  RH  023%=      5-min Rain = 0
KPD4 090206Z 07007KT 17/M04 A2966 RMK A01 T01731042  RH  023%=      5-min Rain = 0
KPD4 090207Z 06007KT 17/M04 A2966 RMK A01 T01721041  RH  023%=      5-min Rain = 0
KPD4 090208Z 07006KT 17/M04 A2966 RMK A01 T01711042  RH  023%=      5-min Rain = 0
KPD4 090209Z 07007KT 17/M04 A2966 RMK A01 T01711042  RH  023%=      5-min Rain = 0
KPD4 090210Z 07006KT 17/M04 A2966 RMK A01 T01711042  RH  023%=      5-min Rain = 0
KPD4 090211Z 07006KT 17/M04 A2966 RMK A01 T01701042  RH  023%=      5-min Rain = 0
KPD4 090212Z 06006KT 17/M04 A2966 RMK A01 T01691041  RH  023%=      5-min Rain = 0
KPD4 090213Z 07006KT 17/M04 A2966 RMK A01 T01671041  RH  024%=      5-min Rain = 0
KPD4 090214Z 07006KT 17/M04 A2966 RMK A01 T01671041  RH  024%=      5-min Rain = 0
KPD4 090215Z 06006KT 17/M04 A2966 RMK A01 T01661041  RH  024%=      5-min Rain = 0
KPD4 090216Z 07006KT 17/M04 A2966 RMK A01 T01651041  RH  024%=      5-min Rain = 0
KPD4 090217Z 06006KT 16/M04 A2966 RMK A01 T01641041  RH  024%=      5-min Rain = 0
KPD4 090218Z 06006KT 17/M04 A2966 RMK A01 T01651040  RH  024%=      5-min Rain = 0
KPD4 090219Z 06006KT 17/M04 A2966 RMK A01 T01651040  RH  024%=      5-min Rain = 0
KPD4 090220Z 06007KT 17/M04 A2966 RMK A01 T01651040  RH  024%=      5-min Rain = 0
KPD4 090221Z 07007KT 17/M04 A2966 RMK A01 T01651040  RH  024%=      5-min Rain = 0
KPD4 090222Z 06007KT 17/M04 A2966 RMK A01 T01661041  RH  024%=      5-min Rain = 0
KPD4 090223Z 06007KT 17/M04 A2966 RMK A01 T01671041  RH  024%=      5-min Rain = 0
KPD4 090224Z 06007KT 17/M04 A2966 RMK A01 T01671040  RH  024%=      5-min Rain = 0
KPD4 090225Z 06007KT 17/M04 A2966 RMK A01 T01661041  RH  024%=      5-min Rain = 0
KPD4 090226Z 07007KT 16/M04 A2966 RMK A01 T01641040  RH  024%=      5-min Rain = 0
KPD4 090227Z 07008KT 16/M04 A2966 RMK A01 T01631040  RH  025%=      5-min Rain = 0
KPD4 090228Z 07008KT 16/M04 A2966 RMK A01 T01621039  RH  025%=      5-min Rain = 0
KPD4 090229Z 07008KT 16/M04 A2966 RMK A01 T01601039  RH  025%=      5-min Rain = 0
KPD4 090230Z 06008KT 16/M04 A2966 RMK A01 T01601041  RH  025%=      5-min Rain = 0
KPD4 090231Z 06009KT 16/M04 A2966 RMK A01 T01631041  RH  024%=      5-min Rain = 0
KPD4 090232Z 06009KT 17/M04 A2967 RMK A01 T01651041  RH  024%=      5-min Rain = 0
KPD4 090233Z 06009KT 17/M04 A2967 RMK A01 T01671041  RH  024%=      5-min Rain = 0
KPD4 090234Z 06008KT 17/M04 A2967 RMK A01 T01671039  RH  024%=      5-min Rain = 0
KPD4 090235Z 06008KT 16/M04 A2967 RMK A01 T01641040  RH  024%=      5-min Rain = 0
KPD4 090236Z 06008KT 16/M04 A2967 RMK A01 T01631040  RH  025%=      5-min Rain = 0
KPD4 090237Z 06008KT 16/M04 A2967 RMK A01 T01611040  RH  025%=      5-min Rain = 0
KPD4 090238Z 06008KT 16/M04 A2967 RMK A01 T01611039  RH  025%=      5-min Rain = 0
KPD4 090239Z 06007KT 16/M04 A2967 RMK A01 T01611038  RH  025%=      5-min Rain = 0
KPD4 090240Z 05007KT 16/M04 A2967 RMK A01 T01601039  RH  025%=      5-min Rain = 0
KPD4 090241Z 06007KT 16/M04 A2967 RMK A01 T01601039  RH  025%=      5-min Rain = 0
KPD4 090242Z 06008KT 16/M04 A2967 RMK A01 T01611039  RH  025%=      5-min Rain = 0
KPD4 090243Z 06008KT 16/M04 A2967 RMK A01 T01611039  RH  025%=      5-min Rain = 0
KPD4 090244Z 06008KT 16/M04 A2967 RMK A01 T01621039  RH  025%=      5-min Rain = 0
KPD4 090245Z 05007KT 16/M04 A2967 RMK A01 T01631038  RH  025%=      5-min Rain = 0
KPD4 090246Z 06007KT 16/M04 A2967 RMK A01 T01621038  RH  025%=      5-min Rain = 0
KPD4 090247Z 06007KT 16/M04 A2967 RMK A01 T01611038  RH  025%=      5-min Rain = 0
KPD4 090248Z 06007KT 16/M04 A2967 RMK A01 T01601038  RH  025%=      5-min Rain = 0
KPD4 090249Z 06007KT 16/M04 A2967 RMK A01 T01591038  RH  025%=      5-min Rain = 0
KPD4 090250Z 06007KT 16/M04 A2967 RMK A01 T01591040  RH  025%=      5-min Rain = 0
KPD4 090251Z 06007KT 16/M04 A2967 RMK A01 T01601042  RH  025%=      5-min Rain = 0
KPD4 090252Z 07008KT 16/M04 A2967 RMK A01 T01621041  RH  025%=      5-min Rain = 0
KPD4 090253Z 07008KT 16/M04 A2967 RMK A01 T01631042  RH  024%=      5-min Rain = 0
KPD4 090254Z 07009KT 16/M04 A2967 RMK A01 T01641042  RH  024%=      5-min Rain = 0
KPD4 090255Z 08010KT 17/M04 A2967 RMK A01 T01651041  RH  024%=      5-min Rain = 0
KPD4 090256Z 07009KT 16/M04 A2967 RMK A01 T01641040  RH  024%=      5-min Rain = 0
KPD4 090257Z 08008KT 16/M04 A2967 RMK A01 T01631039  RH  025%=      5-min Rain = 0
KPD4 090258Z 07009KT 16/M04 A2967 RMK A01 T01621039  RH  025%=      5-min Rain = 0
KPD4 090259Z 08009KT 16/M04 A2967 RMK A01 T01621039  RH  025%=      5-min Rain = 0
KPD4 090300Z 07010KT 16/M04 A2967 RMK A01 T01631039  RH  025%=      5-min Rain = 0
KPD4 090301Z 07010KT 17/M04 A2968 RMK A01 T01651039  RH  024%=      5-min Rain = 0
KPD4 090302Z 07009KT 17/M04 A2968 RMK A01 T01681040  RH  024%=      5-min Rain = 0
KPD4 090303Z 07009KT 17/M04 A2968 RMK A01 T01701039  RH  024%=      5-min Rain = 0
KPD4 090304Z 07008KT 17/M04 A2968 RMK A01 T01701038  RH  024%=      5-min Rain = 0
KPD4 090305Z 06008KT 17/M04 A2968 RMK A01 T01671037  RH  024%=      5-min Rain = 0
KPD4 090306Z 06008KT 16/M04 A2968 RMK A01 T01631036  RH  025%=      5-min Rain = 0
KPD4 090307Z 06008KT 16/M04 A2968 RMK A01 T01601036  RH  026%=      5-min Rain = 0
KPD4 090308Z 06009KT 16/M04 A2968 RMK A01 T01591035  RH  026%=      5-min Rain = 0
KPD4 090309Z 06009KT 16/M03 A2968 RMK A01 T01571034  RH  027%=      5-min Rain = 0
KPD4 090310Z 05009KT 16/M04 A2968 RMK A01 T01571035  RH  026%=      5-min Rain = 0
KPD4 090311Z 05008KT 16/M03 A2968 RMK A01 T01581034  RH  026%=      5-min Rain = 0
KPD4 090312Z 05009KT 16/M04 A2967 RMK A01 T01581035  RH  026%=      5-min Rain = 0
KPD4 090313Z 05009KT 16/M04 A2967 RMK A01 T01591038  RH  026%=      5-min Rain = 0
KPD4 090314Z 06009KT 16/M04 A2967 RMK A01 T01621039  RH  025%=      5-min Rain = 0
KPD4 090315Z 07009KT 17/M04 A2968 RMK A01 T01651040  RH  024%=      5-min Rain = 0
KPD4 090316Z 07009KT 17/M04 A2968 RMK A01 T01671040  RH  024%=      5-min Rain = 0
KPD4 090317Z 08009KT 17/M04 A2968 RMK A01 T01681042  RH  024%=      5-min Rain = 0
KPD4 090318Z 08008KT 17/M04 A2968 RMK A01 T01691041  RH  023%=      5-min Rain = 0
KPD4 090319Z 08007KT 17/M04 A2968 RMK A01 T01681040  RH  024%=      5-min Rain = 0
KPD4 090320Z 08007KT 17/M04 A2968 RMK A01 T01651040  RH  024%=      5-min Rain = 0
KPD4 090321Z 08006KT 16/M04 A2968 RMK A01 T01631040  RH  025%=      5-min Rain = 0
KPD4 090322Z 08007KT 16/M04 A2968 RMK A01 T01621039  RH  025%=      5-min Rain = 0
KPD4 090323Z 08006KT 16/M04 A2968 RMK A01 T01601039  RH  025%=      5-min Rain = 0
KPD4 090324Z 07007KT 16/M04 A2968 RMK A01 T01601039  RH  025%=      5-min Rain = 0
KPD4 090325Z 08006KT 16/M04 A2968 RMK A01 T01591039  RH  025%=      5-min Rain = 0
KPD4 090326Z 07006KT 16/M04 A2968 RMK A01 T01581039  RH  025%=      5-min Rain = 0
KPD4 090327Z 07007KT 16/M04 A2968 RMK A01 T01571039  RH  026%=      5-min Rain = 0
KPD4 090328Z 07007KT 16/M04 A2968 RMK A01 T01561038  RH  026%=      5-min Rain = 0
KPD4 090329Z 07008KT 16/M04 A2968 RMK A01 T01551038  RH  026%=      5-min Rain = 0
KPD4 090330Z 07008KT 15/M04 A2968 RMK A01 T01531039  RH  026%=      5-min Rain = 0
KPD4 090331Z 07007KT 15/M04 A2968 RMK A01 T01531038  RH  026%=      5-min Rain = 0
KPD4 090332Z 07007KT 15/M04 A2968 RMK A01 T01531038  RH  027%=      5-min Rain = 0
KPD4 090333Z 07007KT 15/M04 A2968 RMK A01 T01541039  RH  026%=      5-min Rain = 0
KPD4 090334Z 08008KT 16/M04 A2968 RMK A01 T01551039  RH  026%=      5-min Rain = 0
KPD4 090335Z 07008KT 16/M04 A2968 RMK A01 T01551039  RH  026%=      5-min Rain = 0
KPD4 090336Z 07007KT 16/M04 A2968 RMK A01 T01551039  RH  026%=      5-min Rain = 0
KPD4 090337Z 08007KT 16/M04 A2968 RMK A01 T01561039  RH  026%=      5-min Rain = 0
KPD4 090338Z 08007KT 15/M04 A2968 RMK A01 T01541039  RH  026%=      5-min Rain = 0
KPD4 090339Z 09006KT 15/M04 A2968 RMK A01 T01521039  RH  027%=      5-min Rain = 0
KPD4 090340Z 12006KT 15/M04 A2968 RMK A01 T01501039  RH  027%=      5-min Rain = 0
KPD4 090341Z 11007KT 15/M04 A2968 RMK A01 T01491038  RH  027%=      5-min Rain = 0
KPD4 090342Z 10009KT 15/M04 A2968 RMK A01 T01491038  RH  027%=      5-min Rain = 0
KPD4 090343Z 10007KT 16/M04 A2968 RMK A01 T01571038  RH  026%=      5-min Rain = 0
KPD4 090344Z 09007KT 16/M04 A2968 RMK A01 T01631038  RH  025%=      5-min Rain = 0
KPD4 090345Z 11005KT 16/M04 A2968 RMK A01 T01641038  RH  025%=      5-min Rain = 0
KPD4 090346Z 11004KT 16/M04 A2968 RMK A01 T01641038  RH  025%=      5-min Rain = 0
KPD4 090347Z 11004KT 16/M04 A2968 RMK A01 T01621038  RH  025%=      5-min Rain = 0
KPD4 090348Z 11004KT 16/M04 A2968 RMK A01 T01601037  RH  025%=      5-min Rain = 0
KPD4 090349Z 11005KT 16/M04 A2968 RMK A01 T01591038  RH  026%=      5-min Rain = 0
KPD4 090350Z 10007KT 16/M04 A2968 RMK A01 T01581039  RH  026%=      5-min Rain = 0
KPD4 090351Z 10007KT 16/M04 A2968 RMK A01 T01591039  RH  025%=      5-min Rain = 0
KPD4 090352Z 10007KT 16/M04 A2968 RMK A01 T01591039  RH  025%=      5-min Rain = 0
KPD4 090353Z 10008KT 16/M04 A2968 RMK A01 T01581039  RH  026%=      5-min Rain = 0
KPD4 090354Z 08008KT 16/M04 A2968 RMK A01 T01591041  RH  025%=      5-min Rain = 0
KPD4 090355Z 10007KT 16/M04 A2968 RMK A01 T01621038  RH  025%=      5-min Rain = 0
KPD4 090356Z 11006KT 16/M04 A2968 RMK A01 T01621036  RH  025%=      5-min Rain = 0
KPD4 090357Z 11007KT 16/M03 A2968 RMK A01 T01581034  RH  026%=      5-min Rain = 0
KPD4 090358Z 11006KT 16/M04 A2968 RMK A01 T01561036  RH  027%=      5-min Rain = 0
KPD4 090359Z 11007KT 15/M04 A2968 RMK A01 T01541036  RH  027%=      5-min Rain = 0
KPD4 090400Z 12006KT 15/M04 A2968 RMK A01 T01541037  RH  027%=      5-min Rain = 0
KPD4 090401Z 12006KT 15/M04 A2968 RMK A01 T01541035  RH  027%=      5-min Rain = 0
KPD4 090402Z 11008KT 15/M04 A2968 RMK A01 T01521036  RH  027%=      5-min Rain = 0
KPD4 090403Z 09007KT 15/M04 A2968 RMK A01 T01531036  RH  027%=      5-min Rain = 0
KPD4 090404Z 09006KT 15/M03 A2968 RMK A01 T01531034  RH  027%=      5-min Rain = 0
KPD4 090405Z 09005KT 15/M04 A2968 RMK A01 T01521035  RH  027%=      5-min Rain = 0
KPD4 090406Z 09005KT 15/M04 A2968 RMK A01 T01521036  RH  027%=      5-min Rain = 0
KPD4 090407Z 10005KT 15/M04 A2968 RMK A01 T01531037  RH  027%=      5-min Rain = 0
KPD4 090408Z 11005KT 15/M04 A2968 RMK A01 T01541037  RH  027%=      5-min Rain = 0
KPD4 090409Z 10006KT 16/M04 A2968 RMK A01 T01551037  RH  026%=      5-min Rain = 0
KPD4 090410Z 09006KT 16/M04 A2968 RMK A01 T01551036  RH  027%=      5-min Rain = 0
KPD4 090411Z 11005KT 16/M04 A2968 RMK A01 T01561036  RH  026%=      5-min Rain = 0
KPD4 090412Z 11006KT 16/M04 A2968 RMK A01 T01561036  RH  026%=      5-min Rain = 0
KPD4 090413Z 10005KT 16/M04 A2968 RMK A01 T01561035  RH  027%=      5-min Rain = 0
KPD4 090414Z 10004KT 16/M04 A2968 RMK A01 T01551035  RH  027%=      5-min Rain = 0
KPD4 090415Z 11003KT 15/M03 A2968 RMK A01 T01541034  RH  027%=      5-min Rain = 0
KPD4 090416Z 10004KT 15/M03 A2968 RMK A01 T01531034  RH  027%=      5-min Rain = 0
KPD4 090417Z 11004KT 15/M03 A2968 RMK A01 T01521034  RH  028%=      5-min Rain = 0
KPD4 090418Z 11004KT 15/M03 A2968 RMK A01 T01511033  RH  028%=      5-min Rain = 0
KPD4 090419Z 11004KT 15/M03 A2968 RMK A01 T01491033  RH  028%=      5-min Rain = 0
KPD4 090420Z 09005KT 15/M03 A2967 RMK A01 T01481034  RH  028%=      5-min Rain = 0
KPD4 090421Z 08005KT 15/M04 A2967 RMK A01 T01501038  RH  027%=      5-min Rain = 0
KPD4 090422Z 08005KT 15/M04 A2967 RMK A01 T01531035  RH  027%=      5-min Rain = 0
KPD4 090423Z 10005KT 15/M04 A2968 RMK A01 T01521035  RH  027%=      5-min Rain = 0
KPD4 090424Z 11004KT 15/M03 A2968 RMK A01 T01511033  RH  028%=      5-min Rain = 0
KPD4 090425Z 10004KT 15/M04 A2968 RMK A01 T01491035  RH  028%=      5-min Rain = 0
KPD4 090426Z 10006KT 15/M04 A2968 RMK A01 T01501035  RH  028%=      5-min Rain = 0
KPD4 090427Z 10003KT 15/M03 A2968 RMK A01 T01501034  RH  028%=      5-min Rain = 0
KPD4 090428Z 12002KT 15/M03 A2968 RMK A01 T01511033  RH  028%=      5-min Rain = 0
KPD4 090429Z 10001KT 15/M03 A2968 RMK A01 T01511032  RH  028%=      5-min Rain = 0
KPD4 090430Z 11000KT 15/M03 A2968 RMK A01 T01491032  RH  028%=      5-min Rain = 0
KPD4 090431Z 00000KT 15/M03 A2968 RMK A01 T01471032  RH  029%=      5-min Rain = 0
KPD4 090432Z 01000KT 15/M03 A2968 RMK A01 T01461032  RH  029%=      5-min Rain = 0
KPD4 090433Z 01000KT 15/M03 A2968 RMK A01 T01461033  RH  029%=      5-min Rain = 0
KPD4 090434Z 14000KT 15/M03 A2968 RMK A01 T01451031  RH  029%=      5-min Rain = 0
KPD4 090435Z 13001KT 15/M03 A2968 RMK A01 T01451032  RH  029%=      5-min Rain = 0
KPD4 090436Z 10001KT 15/M03 A2968 RMK A01 T01451032  RH  029%=      5-min Rain = 0
KPD4 090437Z 14003KT 15/M04 A2968 RMK A01 T01451035  RH  029%=      5-min Rain = 0
KPD4 090438Z 13002KT 15/M04 A2968 RMK A01 T01471037  RH  028%=      5-min Rain = 0
KPD4 090439Z 15001KT 15/M04 A2967 RMK A01 T01491036  RH  028%=      5-min Rain = 0
KPD4 090440Z 15002KT 15/M04 A2968 RMK A01 T01501037  RH  027%=      5-min Rain = 0
KPD4 090441Z 15002KT 15/M04 A2968 RMK A01 T01521036  RH  027%=      5-min Rain = 0
KPD4 090442Z 12001KT 15/M04 A2968 RMK A01 T01531036  RH  027%=      5-min Rain = 0
KPD4 090443Z 16003KT 15/M04 A2968 RMK A01 T01531036  RH  027%=      5-min Rain = 0
KPD4 090444Z 17002KT 15/M04 A2968 RMK A01 T01521036  RH  027%=      5-min Rain = 0
KPD4 090445Z 17002KT 15/M04 A2967 RMK A01 T01491035  RH  028%=      5-min Rain = 0
KPD4 090446Z 19002KT 15/M04 A2967 RMK A01 T01481035  RH  028%=      5-min Rain = 0
KPD4 090447Z 21001KT 15/M04 A2967 RMK A01 T01481035  RH  028%=      5-min Rain = 0
KPD4 090448Z 24000KT 15/M04 A2967 RMK A01 T01481035  RH  028%=      5-min Rain = 0
KPD4 090449Z 25001KT 15/M04 A2967 RMK A01 T01481036  RH  028%=      5-min Rain = 0
KPD4 090450Z 17002KT 15/M04 A2967 RMK A01 T01451036  RH  028%=      5-min Rain = 0
KPD4 090451Z 15002KT 14/M04 A2967 RMK A01 T01421037  RH  029%=      5-min Rain = 0
KPD4 090452Z 14002KT 14/M04 A2967 RMK A01 T01411035  RH  029%=      5-min Rain = 0
KPD4 090453Z 12001KT 14/M04 A2967 RMK A01 T01421035  RH  029%=      5-min Rain = 0
KPD4 090454Z 16002KT 14/M04 A2967 RMK A01 T01421035  RH  029%=      5-min Rain = 0
KPD4 090455Z 15002KT 14/M04 A2967 RMK A01 T01431035  RH  029%=      5-min Rain = 0
KPD4 090456Z 15002KT 14/M03 A2967 RMK A01 T01431034  RH  029%=      5-min Rain = 0
KPD4 090457Z 16001KT 14/M03 A2967 RMK A01 T01431034  RH  029%=      5-min Rain = 0
KPD4 090458Z 17002KT 14/M03 A2967 RMK A01 T01431034  RH  029%=      5-min Rain = 0
KPD4 090459Z 17002KT 14/M04 A2967 RMK A01 T01441035  RH  029%=      5-min Rain = 0

Page generated in 0.0707 seconds.